Observation data for Welch on 03/05/2021      Previous  Date  Next       Current Mesonet Observations  Soil Data  Daily Summary Page  Observations in Plain Language
KWE2 050600Z 31009KT 08/M05 A2999 RMK A01 T00781051  RH  040%=      5-min Rain = 0
KWE2 050601Z 31009KT 08/M05 A2999 RMK A01 T00771051  RH  040%=      5-min Rain = 0
KWE2 050602Z 31008KT 08/M05 A2999 RMK A01 T00781051  RH  040%=      5-min Rain = 0
KWE2 050603Z 31008KT 08/M05 A2999 RMK A01 T00781050  RH  040%=      5-min Rain = 0
KWE2 050604Z 31008KT 08/M05 A2999 RMK A01 T00791051  RH  040%=      5-min Rain = 0
KWE2 050605Z 31008KT 08/M05 A2999 RMK A01 T00791050  RH  040%=      5-min Rain = 0
KWE2 050606Z 31008KT 08/M05 A2999 RMK A01 T00781050  RH  040%=      5-min Rain = 0
KWE2 050607Z 31008KT 08/M05 A2999 RMK A01 T00771051  RH  040%=      5-min Rain = 0
KWE2 050608Z 31008KT 08/M05 A2999 RMK A01 T00761051  RH  040%=      5-min Rain = 0
KWE2 050609Z 30007KT 08/M05 A2999 RMK A01 T00751051  RH  040%=      5-min Rain = 0
KWE2 050610Z 31007KT 07/M05 A2999 RMK A01 T00731051  RH  041%=      5-min Rain = 0
KWE2 050611Z 30007KT 07/M05 A2999 RMK A01 T00721051  RH  041%=      5-min Rain = 0
KWE2 050612Z 30007KT 07/M05 A2999 RMK A01 T00711051  RH  041%=      5-min Rain = 0
KWE2 050613Z 30007KT 07/M05 A2999 RMK A01 T00711052  RH  041%=      5-min Rain = 0
KWE2 050614Z 30007KT 07/M05 A2999 RMK A01 T00701052  RH  042%=      5-min Rain = 0
KWE2 050615Z 30007KT 07/M05 A2999 RMK A01 T00701052  RH  042%=      5-min Rain = 0
KWE2 050616Z 30007KT 07/M05 A2999 RMK A01 T00701052  RH  042%=      5-min Rain = 0
KWE2 050617Z 30007KT 07/M05 A2999 RMK A01 T00691052  RH  042%=      5-min Rain = 0
KWE2 050618Z 30007KT 07/M05 A2999 RMK A01 T00691053  RH  042%=      5-min Rain = 0
KWE2 050619Z 29007KT 07/M05 A2999 RMK A01 T00691053  RH  042%=      5-min Rain = 0
KWE2 050620Z 29007KT 07/M05 A2999 RMK A01 T00681052  RH  042%=      5-min Rain = 0
KWE2 050621Z 28007KT 07/M05 A2999 RMK A01 T00651051  RH  043%=      5-min Rain = 0
KWE2 050622Z 28007KT 06/M05 A2999 RMK A01 T00631051  RH  044%=      5-min Rain = 0
KWE2 050623Z 28008KT 06/M05 A2999 RMK A01 T00611051  RH  044%=      5-min Rain = 0
KWE2 050624Z 28008KT 06/M05 A2999 RMK A01 T00601052  RH  045%=      5-min Rain = 0
KWE2 050625Z 28008KT 06/M05 A2999 RMK A01 T00591052  RH  045%=      5-min Rain = 0
KWE2 050626Z 28008KT 06/M05 A2999 RMK A01 T00591051  RH  045%=      5-min Rain = 0
KWE2 050627Z 28008KT 06/M05 A2999 RMK A01 T00591051  RH  045%=      5-min Rain = 0
KWE2 050628Z 27007KT 06/M05 A2999 RMK A01 T00601051  RH  045%=      5-min Rain = 0
KWE2 050629Z 27007KT 06/M05 A2999 RMK A01 T00601052  RH  044%=      5-min Rain = 0
KWE2 050630Z 27007KT 06/M05 A2999 RMK A01 T00601052  RH  044%=      5-min Rain = 0
KWE2 050631Z 27008KT 06/M05 A2999 RMK A01 T00611053  RH  044%=      5-min Rain = 0
KWE2 050632Z 27007KT 06/M05 A2999 RMK A01 T00611053  RH  044%=      5-min Rain = 0
KWE2 050633Z 27008KT 06/M05 A2999 RMK A01 T00611054  RH  043%=      5-min Rain = 0
KWE2 050634Z 27008KT 06/M05 A2999 RMK A01 T00621054  RH  043%=      5-min Rain = 0
KWE2 050635Z 27008KT 06/M06 A2999 RMK A01 T00621055  RH  043%=      5-min Rain = 0
KWE2 050636Z 27008KT 06/M06 A2999 RMK A01 T00641055  RH  042%=      5-min Rain = 0
KWE2 050637Z 27008KT 06/M06 A2999 RMK A01 T00641055  RH  042%=      5-min Rain = 0
KWE2 050638Z 27008KT 06/M06 A2999 RMK A01 T00641055  RH  042%=      5-min Rain = 0
KWE2 050639Z 27008KT 06/M06 A2999 RMK A01 T00631056  RH  042%=      5-min Rain = 0
KWE2 050640Z 27008KT 06/M06 A2999 RMK A01 T00621056  RH  042%=      5-min Rain = 0
KWE2 050641Z 27008KT 06/M06 A2999 RMK A01 T00611057  RH  043%=      5-min Rain = 0
KWE2 050642Z 26008KT 06/M06 A2999 RMK A01 T00601057  RH  043%=      5-min Rain = 0
KWE2 050643Z 26008KT 06/M06 A2999 RMK A01 T00591057  RH  043%=      5-min Rain = 0
KWE2 050644Z 26009KT 06/M06 A2999 RMK A01 T00591057  RH  043%=      5-min Rain = 0
KWE2 050645Z 26009KT 06/M06 A2999 RMK A01 T00581058  RH  043%=      5-min Rain = 0
KWE2 050646Z 26009KT 06/M06 A2999 RMK A01 T00571057  RH  044%=      5-min Rain = 0
KWE2 050647Z 26009KT 06/M06 A2999 RMK A01 T00571056  RH  044%=      5-min Rain = 0
KWE2 050648Z 26009KT 06/M06 A2999 RMK A01 T00581055  RH  044%=      5-min Rain = 0
KWE2 050649Z 27009KT 06/M05 A2999 RMK A01 T00581054  RH  044%=      5-min Rain = 0
KWE2 050650Z 27008KT 06/M05 A2999 RMK A01 T00601053  RH  044%=      5-min Rain = 0
KWE2 050651Z 27008KT 06/M05 A2999 RMK A01 T00611053  RH  044%=      5-min Rain = 0
KWE2 050652Z 28009KT 06/M05 A2999 RMK A01 T00631053  RH  043%=      5-min Rain = 0
KWE2 050653Z 28009KT 06/M05 A2999 RMK A01 T00621053  RH  043%=      5-min Rain = 0
KWE2 050654Z 27009KT 06/M05 A2999 RMK A01 T00631053  RH  043%=      5-min Rain = 0
KWE2 050655Z 28009KT 06/M05 A2999 RMK A01 T00641054  RH  043%=      5-min Rain = 0
KWE2 050656Z 28009KT 06/M05 A2999 RMK A01 T00641054  RH  043%=      5-min Rain = 0
KWE2 050657Z 28009KT 06/M05 A2999 RMK A01 T00641054  RH  042%=      5-min Rain = 0
KWE2 050658Z 28008KT 06/M06 A2999 RMK A01 T00641055  RH  042%=      5-min Rain = 0
KWE2 050659Z 28008KT 06/M06 A2999 RMK A01 T00641055  RH  042%=      5-min Rain = 0
KWE2 050700Z 27008KT 06/M06 A2999 RMK A01 T00641055  RH  042%=      5-min Rain = 0
KWE2 050701Z 28009KT 06/M06 A2999 RMK A01 T00641055  RH  042%=      5-min Rain = 0
KWE2 050702Z 28009KT 06/M06 A2999 RMK A01 T00641055  RH  042%=      5-min Rain = 0
KWE2 050703Z 28009KT 06/M06 A2999 RMK A01 T00641055  RH  042%=      5-min Rain = 0
KWE2 050704Z 28009KT 06/M06 A2999 RMK A01 T00641055  RH  042%=      5-min Rain = 0
KWE2 050705Z 28009KT 06/M06 A2999 RMK A01 T00641055  RH  042%=      5-min Rain = 0
KWE2 050706Z 28009KT 07/M05 A2999 RMK A01 T00651054  RH  042%=      5-min Rain = 0
KWE2 050707Z 28009KT 07/M05 A2999 RMK A01 T00651054  RH  042%=      5-min Rain = 0
KWE2 050708Z 28009KT 07/M05 A2999 RMK A01 T00661054  RH  042%=      5-min Rain = 0
KWE2 050709Z 28009KT 07/M05 A2999 RMK A01 T00661053  RH  042%=      5-min Rain = 0
KWE2 050710Z 27009KT 07/M05 A2999 RMK A01 T00661053  RH  042%=      5-min Rain = 0
KWE2 050711Z 27009KT 07/M05 A2999 RMK A01 T00651053  RH  042%=      5-min Rain = 0
KWE2 050712Z 27009KT 07/M05 A2999 RMK A01 T00651053  RH  043%=      5-min Rain = 0
KWE2 050713Z 27008KT 07/M05 A2999 RMK A01 T00651053  RH  043%=      5-min Rain = 0
KWE2 050714Z 27008KT 07/M05 A2999 RMK A01 T00651053  RH  043%=      5-min Rain = 0
KWE2 050715Z 27009KT 06/M05 A2999 RMK A01 T00641053  RH  043%=      5-min Rain = 0
KWE2 050716Z 27008KT 06/M05 A2999 RMK A01 T00641052  RH  043%=      5-min Rain = 0
KWE2 050717Z 27008KT 06/M05 A2999 RMK A01 T00641053  RH  043%=      5-min Rain = 0
KWE2 050718Z 27008KT 06/M05 A2999 RMK A01 T00641053  RH  043%=      5-min Rain = 0
KWE2 050719Z 27009KT 06/M05 A2999 RMK A01 T00631053  RH  043%=      5-min Rain = 0
KWE2 050720Z 27009KT 06/M05 A2999 RMK A01 T00631053  RH  043%=      5-min Rain = 0
KWE2 050721Z 27009KT 06/M05 A2999 RMK A01 T00631053  RH  043%=      5-min Rain = 0
KWE2 050722Z 27009KT 06/M05 A2999 RMK A01 T00621053  RH  043%=      5-min Rain = 0
KWE2 050723Z 27009KT 06/M05 A2999 RMK A01 T00621053  RH  043%=      5-min Rain = 0
KWE2 050724Z 26010KT 06/M05 A2999 RMK A01 T00621054  RH  043%=      5-min Rain = 0
KWE2 050725Z 26010KT 06/M05 A2999 RMK A01 T00621053  RH  044%=      5-min Rain = 0
KWE2 050726Z 26009KT 06/M05 A2999 RMK A01 T00601054  RH  044%=      5-min Rain = 0
KWE2 050727Z 26010KT 06/M05 A2999 RMK A01 T00601054  RH  044%=      5-min Rain = 0
KWE2 050728Z 26010KT 06/M05 A2999 RMK A01 T00601053  RH  044%=      5-min Rain = 0
KWE2 050729Z 26010KT 06/M05 A2999 RMK A01 T00601053  RH  044%=      5-min Rain = 0
KWE2 050730Z 26010KT 06/M05 A2999 RMK A01 T00601053  RH  044%=      5-min Rain = 0
KWE2 050731Z 26009KT 06/M05 A2999 RMK A01 T00611053  RH  044%=      5-min Rain = 0
KWE2 050732Z 26009KT 06/M05 A2999 RMK A01 T00591053  RH  044%=      5-min Rain = 0
KWE2 050733Z 26009KT 06/M05 A2999 RMK A01 T00591052  RH  045%=      5-min Rain = 0
KWE2 050734Z 26010KT 06/M05 A2999 RMK A01 T00581051  RH  045%=      5-min Rain = 0
KWE2 050735Z 26010KT 06/M05 A30 RMK A01 T00591051  RH  045%=      5-min Rain = 0
KWE2 050736Z 26009KT 06/M05 A30 RMK A01 T00591051  RH  045%=      5-min Rain = 0
KWE2 050737Z 26009KT 06/M05 A30 RMK A01 T00581052  RH  045%=      5-min Rain = 0
KWE2 050738Z 26009KT 06/M05 A30 RMK A01 T00581052  RH  045%=      5-min Rain = 0
KWE2 050739Z 26010KT 06/M05 A30 RMK A01 T00581052  RH  045%=      5-min Rain = 0
KWE2 050740Z 26010KT 06/M05 A30 RMK A01 T00571052  RH  045%=      5-min Rain = 0
KWE2 050741Z 26010KT 06/M05 A30 RMK A01 T00571052  RH  045%=      5-min Rain = 0
KWE2 050742Z 26010KT 06/M05 A30 RMK A01 T00571052  RH  045%=      5-min Rain = 0
KWE2 050743Z 26010KT 06/M05 A30 RMK A01 T00571052  RH  045%=      5-min Rain = 0
KWE2 050744Z 26010KT 06/M05 A30 RMK A01 T00571052  RH  045%=      5-min Rain = 0
KWE2 050745Z 26010KT 06/M05 A30 RMK A01 T00571052  RH  045%=      5-min Rain = 0
KWE2 050746Z 27010KT 06/M05 A30 RMK A01 T00571052  RH  045%=      5-min Rain = 0
KWE2 050747Z 26010KT 06/M05 A30 RMK A01 T00581052  RH  045%=      5-min Rain = 0
KWE2 050748Z 27010KT 06/M05 A30 RMK A01 T00581053  RH  045%=      5-min Rain = 0
KWE2 050749Z 26010KT 06/M05 A30 RMK A01 T00591053  RH  045%=      5-min Rain = 0
KWE2 050750Z 27010KT 06/M05 A30 RMK A01 T00591053  RH  045%=      5-min Rain = 0
KWE2 050751Z 26010KT 06/M05 A30 RMK A01 T00591053  RH  044%=      5-min Rain = 0
KWE2 050752Z 26010KT 06/M05 A30 RMK A01 T00591053  RH  044%=      5-min Rain = 0
KWE2 050753Z 26010KT 06/M05 A30 RMK A01 T00601053  RH  044%=      5-min Rain = 0
KWE2 050754Z 26010KT 06/M05 A30 RMK A01 T00601053  RH  044%=      5-min Rain = 0
KWE2 050755Z 26010KT 06/M05 A30 RMK A01 T00601053  RH  044%=      5-min Rain = 0
KWE2 050756Z 26010KT 06/M05 A30 RMK A01 T00591053  RH  044%=      5-min Rain = 0
KWE2 050757Z 26010KT 06/M05 A30 RMK A01 T00591053  RH  044%=      5-min Rain = 0
KWE2 050758Z 26010KT 06/M05 A30 RMK A01 T00591052  RH  045%=      5-min Rain = 0
KWE2 050759Z 26010KT 06/M05 A30 RMK A01 T00591053  RH  045%=      5-min Rain = 0
KWE2 050800Z 26010KT 06/M05 A30 RMK A01 T00601052  RH  044%=      5-min Rain = 0
KWE2 050801Z 26010KT 06/M05 A30 RMK A01 T00601052  RH  044%=      5-min Rain = 0
KWE2 050802Z 26009KT 06/M05 A30 RMK A01 T00601052  RH  044%=      5-min Rain = 0
KWE2 050803Z 27009KT 06/M05 A30 RMK A01 T00621052  RH  044%=      5-min Rain = 0
KWE2 050804Z 27009KT 06/M05 A30 RMK A01 T00621052  RH  044%=      5-min Rain = 0
KWE2 050805Z 27009KT 06/M05 A30 RMK A01 T00621053  RH  044%=      5-min Rain = 0
KWE2 050806Z 27009KT 06/M05 A30 RMK A01 T00621053  RH  044%=      5-min Rain = 0
KWE2 050807Z 27009KT 06/M05 A30 RMK A01 T00621053  RH  043%=      5-min Rain = 0
KWE2 050808Z 27009KT 06/M05 A30 RMK A01 T00621053  RH  044%=      5-min Rain = 0
KWE2 050809Z 27009KT 06/M05 A30 RMK A01 T00611053  RH  044%=      5-min Rain = 0
KWE2 050810Z 27009KT 06/M05 A30 RMK A01 T00611053  RH  044%=      5-min Rain = 0
KWE2 050811Z 27009KT 06/M05 A30 RMK A01 T00611053  RH  044%=      5-min Rain = 0
KWE2 050812Z 28009KT 06/M05 A30 RMK A01 T00611053  RH  044%=      5-min Rain = 0
KWE2 050813Z 28009KT 06/M05 A30 RMK A01 T00621053  RH  044%=      5-min Rain = 0
KWE2 050814Z 29009KT 06/M05 A30 RMK A01 T00621054  RH  043%=      5-min Rain = 0
KWE2 050815Z 29009KT 06/M05 A30 RMK A01 T00621054  RH  043%=      5-min Rain = 0
KWE2 050816Z 29009KT 06/M05 A30 RMK A01 T00621054  RH  043%=      5-min Rain = 0
KWE2 050817Z 29010KT 06/M05 A30 RMK A01 T00621054  RH  043%=      5-min Rain = 0
KWE2 050818Z 29011KT 06/M05 A30 RMK A01 T00631053  RH  043%=      5-min Rain = 0
KWE2 050819Z 29011KT 07/M05 A30 RMK A01 T00681050  RH  043%=      5-min Rain = 0
KWE2 050820Z 29012KT 07/M05 A30 RMK A01 T00731049  RH  042%=      5-min Rain = 0
KWE2 050821Z 29011KT 08/M05 A30 RMK A01 T00761050  RH  041%=      5-min Rain = 0
KWE2 050822Z 29012KT 08/M05 A30 RMK A01 T00781050  RH  040%=      5-min Rain = 0
KWE2 050823Z 29011KT 08/M05 A30 RMK A01 T00791050  RH  040%=      5-min Rain = 0
KWE2 050824Z 30011KT 08/M05 A30 RMK A01 T00791050  RH  040%=      5-min Rain = 0
KWE2 050825Z 30012KT 08/M05 A30 RMK A01 T00801049  RH  040%=      5-min Rain = 0
KWE2 050826Z 30012KT 08/M05 A30 RMK A01 T00811049  RH  040%=      5-min Rain = 0
KWE2 050827Z 30012KT 08/M05 A30 RMK A01 T00821049  RH  039%=      5-min Rain = 0
KWE2 050828Z 30013KT 08/M05 A30 RMK A01 T00831049  RH  039%=      5-min Rain = 0
KWE2 050829Z 30013KT 08/M05 A30 RMK A01 T00841048  RH  039%=      5-min Rain = 0
KWE2 050830Z 30013KT 09/M05 A30 RMK A01 T00851048  RH  038%=      5-min Rain = 0
KWE2 050831Z 30013KT 09/M05 A3001 RMK A01 T00861048  RH  038%=      5-min Rain = 0
KWE2 050832Z 30013KT 09/M05 A3001 RMK A01 T00861049  RH  038%=      5-min Rain = 0
KWE2 050833Z 30013KT 09/M05 A3001 RMK A01 T00861049  RH  038%=      5-min Rain = 0
KWE2 050834Z 30013KT 09/M05 A3001 RMK A01 T00871049  RH  038%=      5-min Rain = 0
KWE2 050835Z 30012KT 09/M05 A3001 RMK A01 T00871050  RH  037%=      5-min Rain = 0
KWE2 050836Z 31012KT 09/M05 A3001 RMK A01 T00871050  RH  037%=      5-min Rain = 0
KWE2 050837Z 31013KT 09/M05 A3001 RMK A01 T00871051  RH  037%=      5-min Rain = 0
KWE2 050838Z 31012KT 09/M05 A3001 RMK A01 T00871051  RH  037%=      5-min Rain = 0
KWE2 050839Z 30011KT 09/M05 A3001 RMK A01 T00861051  RH  038%=      5-min Rain = 0
KWE2 050840Z 30011KT 09/M05 A3001 RMK A01 T00851051  RH  038%=      5-min Rain = 0
KWE2 050841Z 30012KT 09/M05 A3001 RMK A01 T00851051  RH  038%=      5-min Rain = 0
KWE2 050842Z 31012KT 09/M05 A3001 RMK A01 T00851051  RH  038%=      5-min Rain = 0
KWE2 050843Z 31011KT 09/M05 A3001 RMK A01 T00851051  RH  038%=      5-min Rain = 0
KWE2 050844Z 31011KT 09/M05 A3001 RMK A01 T00851051  RH  038%=      5-min Rain = 0
KWE2 050845Z 31011KT 09/M05 A3001 RMK A01 T00851051  RH  038%=      5-min Rain = 0
KWE2 050846Z 30011KT 09/M05 A3001 RMK A01 T00851051  RH  038%=      5-min Rain = 0
KWE2 050847Z 31011KT 08/M05 A3001 RMK A01 T00841051  RH  038%=      5-min Rain = 0
KWE2 050848Z 30011KT 08/M05 A3001 RMK A01 T00841051  RH  038%=      5-min Rain = 0
KWE2 050849Z 30010KT 08/M05 A3001 RMK A01 T00841051  RH  038%=      5-min Rain = 0
KWE2 050850Z 30011KT 08/M05 A3001 RMK A01 T00831051  RH  038%=      5-min Rain = 0
KWE2 050851Z 31010KT 08/M05 A3001 RMK A01 T00821051  RH  039%=      5-min Rain = 0
KWE2 050852Z 31011KT 08/M05 A3001 RMK A01 T00821051  RH  038%=      5-min Rain = 0
KWE2 050853Z 31011KT 08/M05 A3001 RMK A01 T00821051  RH  039%=      5-min Rain = 0
KWE2 050854Z 30011KT 08/M05 A3001 RMK A01 T00821050  RH  039%=      5-min Rain = 0
KWE2 050855Z 30011KT 08/M05 A3001 RMK A01 T00821050  RH  039%=      5-min Rain = 0
KWE2 050856Z 30010KT 08/M05 A3001 RMK A01 T00811051  RH  039%=      5-min Rain = 0
KWE2 050857Z 30010KT 08/M05 A3001 RMK A01 T00801051  RH  039%=      5-min Rain = 0
KWE2 050858Z 30011KT 08/M05 A3001 RMK A01 T00791051  RH  039%=      5-min Rain = 0
KWE2 050859Z 30010KT 08/M05 A3002 RMK A01 T00791051  RH  039%=      5-min Rain = 0
KWE2 050900Z 30011KT 08/M05 A3002 RMK A01 T00791051  RH  039%=      5-min Rain = 0
KWE2 050901Z 30010KT 08/M05 A3002 RMK A01 T00781051  RH  040%=      5-min Rain = 0
KWE2 050902Z 31010KT 08/M05 A3002 RMK A01 T00781051  RH  040%=      5-min Rain = 0
KWE2 050903Z 31010KT 08/M05 A3002 RMK A01 T00771051  RH  040%=      5-min Rain = 0
KWE2 050904Z 31010KT 08/M05 A3002 RMK A01 T00761051  RH  040%=      5-min Rain = 0
KWE2 050905Z 30010KT 08/M05 A3002 RMK A01 T00761051  RH  040%=      5-min Rain = 0
KWE2 050906Z 30010KT 08/M05 A3002 RMK A01 T00761051  RH  040%=      5-min Rain = 0
KWE2 050907Z 30011KT 08/M05 A3002 RMK A01 T00751051  RH  040%=      5-min Rain = 0
KWE2 050908Z 30011KT 07/M05 A3002 RMK A01 T00741052  RH  040%=      5-min Rain = 0
KWE2 050909Z 30012KT 08/M05 A3002 RMK A01 T00751051  RH  040%=      5-min Rain = 0
KWE2 050910Z 30011KT 07/M05 A3002 RMK A01 T00741052  RH  040%=      5-min Rain = 0
KWE2 050911Z 30011KT 07/M05 A3002 RMK A01 T00741052  RH  040%=      5-min Rain = 0
KWE2 050912Z 30011KT 07/M05 A3002 RMK A01 T00741052  RH  040%=      5-min Rain = 0
KWE2 050913Z 30010KT 07/M05 A3002 RMK A01 T00731052  RH  041%=      5-min Rain = 0
KWE2 050914Z 30011KT 07/M05 A3002 RMK A01 T00731052  RH  041%=      5-min Rain = 0
KWE2 050915Z 30012KT 07/M05 A3002 RMK A01 T00731052  RH  041%=      5-min Rain = 0
KWE2 050916Z 30012KT 07/M05 A3002 RMK A01 T00741051  RH  041%=      5-min Rain = 0
KWE2 050917Z 30012KT 07/M05 A3002 RMK A01 T00741051  RH  040%=      5-min Rain = 0
KWE2 050918Z 30013KT 08/M05 A3002 RMK A01 T00751051  RH  040%=      5-min Rain = 0
KWE2 050919Z 30013KT 08/M05 A3002 RMK A01 T00761051  RH  040%=      5-min Rain = 0
KWE2 050920Z 30013KT 08/M05 A3002 RMK A01 T00771052  RH  040%=      5-min Rain = 0
KWE2 050921Z 30013KT 08/M05 A3002 RMK A01 T00761052  RH  040%=      5-min Rain = 0
KWE2 050922Z 30013KT 08/M05 A3002 RMK A01 T00761052  RH  040%=      5-min Rain = 0
KWE2 050923Z 30013KT 08/M05 A3002 RMK A01 T00771051  RH  040%=      5-min Rain = 0
KWE2 050924Z 30013KT 08/M05 A3002 RMK A01 T00771051  RH  040%=      5-min Rain = 0
KWE2 050925Z 30012KT 08/M05 A3002 RMK A01 T00771051  RH  040%=      5-min Rain = 0
KWE2 050926Z 30013KT 08/M05 A3001 RMK A01 T00761052  RH  040%=      5-min Rain = 0
KWE2 050927Z 30013KT 08/M05 A3001 RMK A01 T00761052  RH  040%=      5-min Rain = 0
KWE2 050928Z 30013KT 08/M05 A3002 RMK A01 T00761051  RH  040%=      5-min Rain = 0
KWE2 050929Z 30012KT 08/M05 A3002 RMK A01 T00761051  RH  040%=      5-min Rain = 0
KWE2 050930Z 30012KT 08/M05 A3002 RMK A01 T00761052  RH  040%=      5-min Rain = 0
KWE2 050931Z 30012KT 08/M05 A3002 RMK A01 T00761051  RH  040%=      5-min Rain = 0
KWE2 050932Z 30012KT 08/M05 A3002 RMK A01 T00751052  RH  040%=      5-min Rain = 0
KWE2 050933Z 31012KT 08/M05 A3002 RMK A01 T00751052  RH  040%=      5-min Rain = 0
KWE2 050934Z 31013KT 08/M05 A3002 RMK A01 T00751052  RH  040%=      5-min Rain = 0
KWE2 050935Z 30012KT 08/M05 A3002 RMK A01 T00751052  RH  040%=      5-min Rain = 0
KWE2 050936Z 30013KT 07/M05 A3002 RMK A01 T00741052  RH  040%=      5-min Rain = 0
KWE2 050937Z 31013KT 07/M05 A3002 RMK A01 T00741052  RH  040%=      5-min Rain = 0
KWE2 050938Z 31013KT 08/M05 A3002 RMK A01 T00751051  RH  040%=      5-min Rain = 0
KWE2 050939Z 30013KT 07/M05 A3002 RMK A01 T00741051  RH  041%=      5-min Rain = 0
KWE2 050940Z 31013KT 07/M05 A3002 RMK A01 T00731052  RH  041%=      5-min Rain = 0
KWE2 050941Z 30014KT 07/M05 A3002 RMK A01 T00731051  RH  041%=      5-min Rain = 0
KWE2 050942Z 31014KT 07/M05 A3002 RMK A01 T00741051  RH  041%=      5-min Rain = 0
KWE2 050943Z 30014KT 07/M05 A3002 RMK A01 T00741051  RH  041%=      5-min Rain = 0
KWE2 050944Z 30014KT 07/M05 A3002 RMK A01 T00741051  RH  041%=      5-min Rain = 0
KWE2 050945Z 30014KT 07/M05 A3002 RMK A01 T00741051  RH  041%=      5-min Rain = 0
KWE2 050946Z 31013KT 07/M05 A3002 RMK A01 T00731052  RH  041%=      5-min Rain = 0
KWE2 050947Z 31014KT 07/M05 A3002 RMK A01 T00731051  RH  041%=      5-min Rain = 0
KWE2 050948Z 31014KT 07/M05 A3002 RMK A01 T00731051  RH  041%=      5-min Rain = 0
KWE2 050949Z 31013KT 07/M05 A3002 RMK A01 T00731051  RH  041%=      5-min Rain = 0
KWE2 050950Z 31014KT 07/M05 A3002 RMK A01 T00731051  RH  041%=      5-min Rain = 0
KWE2 050951Z 31013KT 07/M05 A3002 RMK A01 T00731051  RH  041%=      5-min Rain = 0
KWE2 050952Z 30013KT 07/M05 A3002 RMK A01 T00731051  RH  041%=      5-min Rain = 0
KWE2 050953Z 31013KT 07/M05 A3002 RMK A01 T00721051  RH  041%=      5-min Rain = 0
KWE2 050954Z 31013KT 07/M05 A3002 RMK A01 T00711051  RH  041%=      5-min Rain = 0
KWE2 050955Z 31013KT 07/M05 A3002 RMK A01 T00711051  RH  041%=      5-min Rain = 0
KWE2 050956Z 31013KT 07/M05 A3002 RMK A01 T00711051  RH  042%=      5-min Rain = 0
KWE2 050957Z 31013KT 07/M05 A3002 RMK A01 T00701051  RH  042%=      5-min Rain = 0
KWE2 050958Z 31012KT 07/M05 A3002 RMK A01 T00701051  RH  042%=      5-min Rain = 0
KWE2 050959Z 30012KT 07/M05 A3002 RMK A01 T00701051  RH  042%=      5-min Rain = 0
KWE2 051000Z 30014KT 07/M05 A3002 RMK A01 T00691052  RH  042%=      5-min Rain = 0
KWE2 051001Z 30013KT 07/M05 A3002 RMK A01 T00691052  RH  042%=      5-min Rain = 0
KWE2 051002Z 30012KT 07/M05 A3002 RMK A01 T00701052  RH  042%=      5-min Rain = 0
KWE2 051003Z 30011KT 07/M05 A3002 RMK A01 T00691052  RH  042%=      5-min Rain = 0
KWE2 051004Z 30012KT 07/M05 A3002 RMK A01 T00671052  RH  042%=      5-min Rain = 0
KWE2 051005Z 30012KT 07/M05 A3002 RMK A01 T00661052  RH  043%=      5-min Rain = 0
KWE2 051006Z 30011KT 07/M05 A3002 RMK A01 T00661052  RH  043%=      5-min Rain = 0
KWE2 051007Z 30011KT 07/M05 A3002 RMK A01 T00651052  RH  043%=      5-min Rain = 0
KWE2 051008Z 30011KT 06/M05 A3002 RMK A01 T00641052  RH  043%=      5-min Rain = 0
KWE2 051009Z 30012KT 06/M05 A3002 RMK A01 T00641052  RH  043%=      5-min Rain = 0
KWE2 051010Z 31012KT 06/M05 A3002 RMK A01 T00641052  RH  043%=      5-min Rain = 0
KWE2 051011Z 30012KT 07/M05 A3002 RMK A01 T00651052  RH  043%=      5-min Rain = 0
KWE2 051012Z 30012KT 07/M05 A3002 RMK A01 T00651051  RH  043%=      5-min Rain = 0
KWE2 051013Z 30012KT 07/M05 A3002 RMK A01 T00651051  RH  043%=      5-min Rain = 0
KWE2 051014Z 30012KT 06/M05 A3002 RMK A01 T00641052  RH  043%=      5-min Rain = 0
KWE2 051015Z 30012KT 06/M05 A3002 RMK A01 T00641051  RH  043%=      5-min Rain = 0
KWE2 051016Z 30012KT 06/M05 A3002 RMK A01 T00641051  RH  043%=      5-min Rain = 0
KWE2 051017Z 30013KT 06/M05 A3002 RMK A01 T00641052  RH  043%=      5-min Rain = 0
KWE2 051018Z 30012KT 07/M05 A3002 RMK A01 T00651052  RH  043%=      5-min Rain = 0
KWE2 051019Z 30012KT 07/M05 A3002 RMK A01 T00651052  RH  043%=      5-min Rain = 0
KWE2 051020Z 31013KT 07/M05 A3002 RMK A01 T00651052  RH  043%=      5-min Rain = 0
KWE2 051021Z 31012KT 07/M05 A3002 RMK A01 T00651051  RH  043%=      5-min Rain = 0
KWE2 051022Z 30013KT 07/M05 A3002 RMK A01 T00651051  RH  043%=      5-min Rain = 0
KWE2 051023Z 30012KT 06/M05 A3002 RMK A01 T00641051  RH  043%=      5-min Rain = 0
KWE2 051024Z 30013KT 06/M05 A3002 RMK A01 T00641051  RH  043%=      5-min Rain = 0
KWE2 051025Z 31012KT 06/M05 A3002 RMK A01 T00641051  RH  044%=      5-min Rain = 0
KWE2 051026Z 30013KT 06/M05 A3002 RMK A01 T00641051  RH  044%=      5-min Rain = 0
KWE2 051027Z 30013KT 06/M05 A3002 RMK A01 T00641051  RH  044%=      5-min Rain = 0
KWE2 051028Z 31013KT 07/M05 A3002 RMK A01 T00651051  RH  043%=      5-min Rain = 0
KWE2 051029Z 31013KT 07/M05 A3002 RMK A01 T00651051  RH  043%=      5-min Rain = 0
KWE2 051030Z 31013KT 07/M05 A3002 RMK A01 T00661050  RH  043%=      5-min Rain = 0
KWE2 051031Z 31013KT 07/M05 A3002 RMK A01 T00671050  RH  043%=      5-min Rain = 0
KWE2 051032Z 30013KT 07/M05 A3002 RMK A01 T00671050  RH  043%=      5-min Rain = 0
KWE2 051033Z 31013KT 07/M05 A3002 RMK A01 T00671049  RH  043%=      5-min Rain = 0
KWE2 051034Z 31013KT 07/M05 A3002 RMK A01 T00671049  RH  043%=      5-min Rain = 0
KWE2 051035Z 31013KT 07/M05 A3002 RMK A01 T00661049  RH  044%=      5-min Rain = 0
KWE2 051036Z 30013KT 07/M05 A3003 RMK A01 T00651049  RH  044%=      5-min Rain = 0
KWE2 051037Z 31013KT 07/M05 A3003 RMK A01 T00651049  RH  044%=      5-min Rain = 0
KWE2 051038Z 30013KT 07/M05 A3003 RMK A01 T00661048  RH  044%=      5-min Rain = 0
KWE2 051039Z 31013KT 07/M05 A3003 RMK A01 T00671048  RH  044%=      5-min Rain = 0
KWE2 051040Z 31014KT 07/M05 A3003 RMK A01 T00671047  RH  044%=      5-min Rain = 0
KWE2 051041Z 30013KT 07/M05 A3003 RMK A01 T00671047  RH  044%=      5-min Rain = 0
KWE2 051042Z 30013KT 07/M05 A3003 RMK A01 T00671048  RH  044%=      5-min Rain = 0
KWE2 051043Z 30014KT 07/M05 A3003 RMK A01 T00671048  RH  044%=      5-min Rain = 0
KWE2 051044Z 30013KT 07/M05 A3003 RMK A01 T00671048  RH  044%=      5-min Rain = 0
KWE2 051045Z 30014KT 07/M05 A3003 RMK A01 T00661048  RH  044%=      5-min Rain = 0
KWE2 051046Z 30015KT 07/M05 A3003 RMK A01 T00661048  RH  044%=      5-min Rain = 0
KWE2 051047Z 30014KT 07/M05 A3003 RMK A01 T00651049  RH  044%=      5-min Rain = 0
KWE2 051048Z 30013KT 07/M05 A3003 RMK A01 T00651049  RH  044%=      5-min Rain = 0
KWE2 051049Z 30013KT 07/M05 A3003 RMK A01 T00651049  RH  044%=      5-min Rain = 0
KWE2 051050Z 30013KT 06/M05 A3003 RMK A01 T00641049  RH  044%=      5-min Rain = 0
KWE2 051051Z 30012KT 06/M05 A3003 RMK A01 T00631049  RH  044%=      5-min Rain = 0
KWE2 051052Z 30014KT 06/M05 A3003 RMK A01 T00631049  RH  045%=      5-min Rain = 0
KWE2 051053Z 30014KT 06/M05 A3003 RMK A01 T00621049  RH  045%=      5-min Rain = 0
KWE2 051054Z 31014KT 06/M05 A3004 RMK A01 T00621049  RH  045%=      5-min Rain = 0
KWE2 051055Z 30013KT 06/M05 A3004 RMK A01 T00621049  RH  045%=      5-min Rain = 0
KWE2 051056Z 30014KT 06/M05 A3004 RMK A01 T00621049  RH  045%=      5-min Rain = 0
KWE2 051057Z 30013KT 06/M05 A3004 RMK A01 T00611049  RH  045%=      5-min Rain = 0
KWE2 051058Z 30013KT 06/M05 A3004 RMK A01 T00601049  RH  045%=      5-min Rain = 0
KWE2 051059Z 30013KT 06/M05 A3004 RMK A01 T00591050  RH  045%=      5-min Rain = 0
KWE2 051100Z 30013KT 06/M05 A3004 RMK A01 T00591050  RH  046%=      5-min Rain = 0
KWE2 051101Z 30013KT 06/M05 A3004 RMK A01 T00581050  RH  046%=      5-min Rain = 0
KWE2 051102Z 30013KT 06/M05 A3004 RMK A01 T00571050  RH  046%=      5-min Rain = 0
KWE2 051103Z 30013KT 06/M05 A3004 RMK A01 T00571050  RH  046%=      5-min Rain = 0
KWE2 051104Z 30013KT 06/M05 A3004 RMK A01 T00571050  RH  046%=      5-min Rain = 0
KWE2 051105Z 30013KT 06/M05 A3004 RMK A01 T00571050  RH  046%=      5-min Rain = 0
KWE2 051106Z 30013KT 06/M05 A3004 RMK A01 T00561050  RH  046%=      5-min Rain = 0
KWE2 051107Z 30013KT 05/M05 A3004 RMK A01 T00541051  RH  047%=      5-min Rain = 0
KWE2 051108Z 30012KT 05/M05 A3004 RMK A01 T00541050  RH  047%=      5-min Rain = 0
KWE2 051109Z 30012KT 05/M05 A3005 RMK A01 T00541050  RH  047%=      5-min Rain = 0
KWE2 051110Z 30012KT 05/M05 A3005 RMK A01 T00531050  RH  047%=      5-min Rain = 0
KWE2 051111Z 30012KT 05/M05 A3005 RMK A01 T00521051  RH  047%=      5-min Rain = 0
KWE2 051112Z 30013KT 05/M05 A3005 RMK A01 T00521051  RH  047%=      5-min Rain = 0
KWE2 051113Z 30012KT 05/M05 A3005 RMK A01 T00521050  RH  048%=      5-min Rain = 0
KWE2 051114Z 30012KT 05/M05 A3005 RMK A01 T00511050  RH  048%=      5-min Rain = 0
KWE2 051115Z 30013KT 05/M05 A3005 RMK A01 T00511050  RH  048%=      5-min Rain = 0
KWE2 051116Z 30012KT 05/M05 A3005 RMK A01 T00501050  RH  048%=      5-min Rain = 0
KWE2 051117Z 30012KT 05/M05 A3005 RMK A01 T00501050  RH  048%=      5-min Rain = 0
KWE2 051118Z 30012KT 05/M05 A3005 RMK A01 T00491050  RH  049%=      5-min Rain = 0
KWE2 051119Z 30012KT 05/M05 A3005 RMK A01 T00491050  RH  049%=      5-min Rain = 0
KWE2 051120Z 30012KT 05/M05 A3005 RMK A01 T00491050  RH  049%=      5-min Rain = 0
KWE2 051121Z 30012KT 05/M05 A3005 RMK A01 T00481050  RH  049%=      5-min Rain = 0
KWE2 051122Z 29012KT 05/M05 A3005 RMK A01 T00481050  RH  049%=      5-min Rain = 0
KWE2 051123Z 30012KT 05/M05 A3005 RMK A01 T00471050  RH  049%=      5-min Rain = 0
KWE2 051124Z 30012KT 05/M05 A3005 RMK A01 T00471051  RH  049%=      5-min Rain = 0
KWE2 051125Z 30013KT 05/M05 A3005 RMK A01 T00471051  RH  049%=      5-min Rain = 0
KWE2 051126Z 30013KT 05/M05 A3005 RMK A01 T00471051  RH  049%=      5-min Rain = 0
KWE2 051127Z 30013KT 05/M05 A3005 RMK A01 T00471051  RH  049%=      5-min Rain = 0
KWE2 051128Z 30013KT 05/M05 A3005 RMK A01 T00481051  RH  049%=      5-min Rain = 0
KWE2 051129Z 30013KT 05/M05 A3005 RMK A01 T00481051  RH  049%=      5-min Rain = 0
KWE2 051130Z 30013KT 05/M05 A3005 RMK A01 T00481051  RH  049%=      5-min Rain = 0
KWE2 051131Z 30013KT 05/M05 A3005 RMK A01 T00481051  RH  049%=      5-min Rain = 0
KWE2 051132Z 30014KT 05/M05 A3005 RMK A01 T00491050  RH  049%=      5-min Rain = 0
KWE2 051133Z 31015KT 05/M05 A3005 RMK A01 T00501049  RH  049%=      5-min Rain = 0
KWE2 051134Z 31016KT 05/M05 A3005 RMK A01 T00531048  RH  048%=      5-min Rain = 0
KWE2 051135Z 31014KT 06/M05 A3005 RMK A01 T00551047  RH  048%=      5-min Rain = 0
KWE2 051136Z 31015KT 06/M05 A3005 RMK A01 T00561046  RH  048%=      5-min Rain = 0
KWE2 051137Z 31014KT 06/M05 A3005 RMK A01 T00571045  RH  048%=      5-min Rain = 0
KWE2 051138Z 31015KT 06/M05 A3005 RMK A01 T00571045  RH  048%=      5-min Rain = 0
KWE2 051139Z 31015KT 06/M04 A3005 RMK A01 T00581044  RH  048%=      5-min Rain = 0
KWE2 051140Z 31016KT 06/M04 A3005 RMK A01 T00581044  RH  048%=      5-min Rain = 0
KWE2 051141Z 31015KT 06/M04 A3006 RMK A01 T00591043  RH  048%=      5-min Rain = 0
KWE2 051142Z 31015KT 06/M04 A3006 RMK A01 T00591042  RH  048%=      5-min Rain = 0
KWE2 051143Z 31014KT 06/M04 A3005 RMK A01 T00591042  RH  048%=      5-min Rain = 0
KWE2 051144Z 31015KT 06/M04 A3005 RMK A01 T00581042  RH  048%=      5-min Rain = 0
KWE2 051145Z 31015KT 06/M04 A3006 RMK A01 T00581042  RH  049%=      5-min Rain = 0
KWE2 051146Z 31015KT 06/M04 A3006 RMK A01 T00571042  RH  049%=      5-min Rain = 0
KWE2 051147Z 31015KT 06/M04 A3006 RMK A01 T00571042  RH  049%=      5-min Rain = 0
KWE2 051148Z 32016KT 06/M04 A3006 RMK A01 T00571042  RH  049%=      5-min Rain = 0
KWE2 051149Z 32015KT 06/M04 A3005 RMK A01 T00561042  RH  049%=      5-min Rain = 0
KWE2 051150Z 31015KT 06/M04 A3005 RMK A01 T00561042  RH  049%=      5-min Rain = 0
KWE2 051151Z 31015KT 06/M04 A3006 RMK A01 T00561042  RH  049%=      5-min Rain = 0
KWE2 051152Z 31015KT 06/M04 A3006 RMK A01 T00561041  RH  050%=      5-min Rain = 0
KWE2 051153Z 32015KT 06/M04 A3006 RMK A01 T00551041  RH  050%=      5-min Rain = 0
KWE2 051154Z 31014KT 06/M04 A3006 RMK A01 T00551041  RH  050%=      5-min Rain = 0
KWE2 051155Z 32014KT 05/M04 A3006 RMK A01 T00541041  RH  050%=      5-min Rain = 0
KWE2 051156Z 32014KT 05/M04 A3006 RMK A01 T00541041  RH  051%=      5-min Rain = 0
KWE2 051157Z 32013KT 05/M04 A3006 RMK A01 T00541040  RH  051%=      5-min Rain = 0
KWE2 051158Z 31013KT 05/M04 A3006 RMK A01 T00531040  RH  051%=      5-min Rain = 0
KWE2 051159Z 32014KT 05/M04 A3006 RMK A01 T00531040  RH  051%=      5-min Rain = 0
KWE2 051200Z 32013KT 05/M04 A3006 RMK A01 T00521040  RH  051%=      5-min Rain = 0
KWE2 051201Z 32012KT 05/M04 A3006 RMK A01 T00511040  RH  052%=      5-min Rain = 0
KWE2 051202Z 32012KT 05/M04 A3006 RMK A01 T00511039  RH  052%=      5-min Rain = 0
KWE2 051203Z 31012KT 05/M04 A3006 RMK A01 T00511039  RH  052%=      5-min Rain = 0
KWE2 051204Z 31012KT 05/M04 A3006 RMK A01 T00501039  RH  053%=      5-min Rain = 0
KWE2 051205Z 31012KT 05/M04 A3006 RMK A01 T00491038  RH  053%=      5-min Rain = 0
KWE2 051206Z 31012KT 05/M04 A3006 RMK A01 T00491038  RH  053%=      5-min Rain = 0
KWE2 051207Z 31011KT 05/M04 A3006 RMK A01 T00491038  RH  053%=      5-min Rain = 0
KWE2 051208Z 31011KT 05/M04 A3006 RMK A01 T00491037  RH  054%=      5-min Rain = 0
KWE2 051209Z 31011KT 05/M04 A3006 RMK A01 T00491037  RH  054%=      5-min Rain = 0
KWE2 051210Z 31011KT 05/M04 A3006 RMK A01 T00491036  RH  054%=      5-min Rain = 0
KWE2 051211Z 31011KT 05/M04 A3006 RMK A01 T00491036  RH  054%=      5-min Rain = 0
KWE2 051212Z 31011KT 05/M04 A3006 RMK A01 T00481037  RH  054%=      5-min Rain = 0
KWE2 051213Z 31011KT 05/M04 A3006 RMK A01 T00481037  RH  054%=      5-min Rain = 0
KWE2 051214Z 31012KT 05/M04 A3006 RMK A01 T00471036  RH  055%=      5-min Rain = 0
KWE2 051215Z 31012KT 05/M04 A3006 RMK A01 T00471036  RH  055%=      5-min Rain = 0
KWE2 051216Z 31013KT 05/M04 A3006 RMK A01 T00471036  RH  055%=      5-min Rain = 0
KWE2 051217Z 31012KT 05/M04 A3006 RMK A01 T00471035  RH  055%=      5-min Rain = 0
KWE2 051218Z 32012KT 05/M04 A3006 RMK A01 T00471035  RH  055%=      5-min Rain = 0
KWE2 051219Z 31012KT 05/M03 A3006 RMK A01 T00481034  RH  055%=      5-min Rain = 0
KWE2 051220Z 31013KT 05/M03 A3006 RMK A01 T00491034  RH  055%=      5-min Rain = 0
KWE2 051221Z 31014KT 05/M03 A3006 RMK A01 T00501033  RH  055%=      5-min Rain = 0
KWE2 051222Z 31013KT 05/M03 A3006 RMK A01 T00521032  RH  055%=      5-min Rain = 0
KWE2 051223Z 31016KT 05/M03 A3006 RMK A01 T00541031  RH  054%=      5-min Rain = 0
KWE2 051224Z 32016KT 06/M03 A3006 RMK A01 T00561029  RH  054%=      5-min Rain = 0
KWE2 051225Z 32016KT 06/M03 A3006 RMK A01 T00591028  RH  054%=      5-min Rain = 0
KWE2 051226Z 32018KT 06/M03 A3006 RMK A01 T00611026  RH  054%=      5-min Rain = 0
KWE2 051227Z 32015KT 06/M02 A3006 RMK A01 T00631024  RH  054%=      5-min Rain = 0
KWE2 051228Z 32017KT 06/M02 A3006 RMK A01 T00641024  RH  053%=      5-min Rain = 0
KWE2 051229Z 32017KT 06/M02 A3006 RMK A01 T00641023  RH  053%=      5-min Rain = 0
KWE2 051230Z 32017KT 07/M02 A3006 RMK A01 T00661023  RH  053%=      5-min Rain = 0
KWE2 051231Z 32018KT 07/M02 A3006 RMK A01 T00661022  RH  053%=      5-min Rain = 0
KWE2 051232Z 32017KT 07/M02 A3006 RMK A01 T00681021  RH  053%=      5-min Rain = 0
KWE2 051233Z 32018KT 07/M02 A3006 RMK A01 T00691020  RH  053%=      5-min Rain = 0
KWE2 051234Z 32017KT 07/M02 A3006 RMK A01 T00691019  RH  053%=      5-min Rain = 0
KWE2 051235Z 33017KT 07/M02 A3006 RMK A01 T00691019  RH  053%=      5-min Rain = 0
KWE2 051236Z 33017KT 07/M02 A3006 RMK A01 T00691019  RH  053%=      5-min Rain = 0
KWE2 051237Z 32018KT 07/M02 A3006 RMK A01 T00691019  RH  053%=      5-min Rain = 0
KWE2 051238Z 33016G21KT 07/M02 A3006 RMK A01 T00701017  RH  054%=      5-min Rain = 0
KWE2 051239Z 32016KT 07/M02 A3006 RMK A01 T00701017  RH  054%=      5-min Rain = 0
KWE2 051240Z 33017KT 07/M02 A3006 RMK A01 T00701017  RH  054%=      5-min Rain = 0
KWE2 051241Z 32017KT 07/M02 A3006 RMK A01 T00711015  RH  054%=      5-min Rain = 0
KWE2 051242Z 33017KT 07/M02 A3006 RMK A01 T00721015  RH  054%=      5-min Rain = 0
KWE2 051243Z 33020KT 07/M01 A3006 RMK A01 T00731014  RH  054%=      5-min Rain = 0
KWE2 051244Z 33018KT 07/M01 A3006 RMK A01 T00741013  RH  054%=      5-min Rain = 0
KWE2 051245Z 33019KT 07/M01 A3006 RMK A01 T00741013  RH  054%=      5-min Rain = 0
KWE2 051246Z 33018KT 07/M01 A3006 RMK A01 T00741013  RH  054%=      5-min Rain = 0
KWE2 051247Z 33016KT 07/M01 A3006 RMK A01 T00741012  RH  054%=      5-min Rain = 0
KWE2 051248Z 33017KT 07/M01 A3006 RMK A01 T00741012  RH  054%=      5-min Rain = 0
KWE2 051249Z 33016KT 07/M01 A3006 RMK A01 T00741012  RH  054%=      5-min Rain = 0
KWE2 051250Z 33015KT 07/M01 A3007 RMK A01 T00731012  RH  055%=      5-min Rain = 0
KWE2 051251Z 33017KT 07/M01 A3007 RMK A01 T00731011  RH  055%=      5-min Rain = 0
KWE2 051252Z 32017KT 07/M01 A3007 RMK A01 T00721011  RH  055%=      5-min Rain = 0
KWE2 051253Z 33017KT 07/M01 A3007 RMK A01 T00731011  RH  055%=      5-min Rain = 0
KWE2 051254Z 32017KT 07/M01 A3007 RMK A01 T00731011  RH  055%=      5-min Rain = 0
KWE2 051255Z 32017KT 07/M01 A3007 RMK A01 T00731011  RH  055%=      5-min Rain = 0
KWE2 051256Z 32016KT 07/M01 A3007 RMK A01 T00731011  RH  055%=      5-min Rain = 0
KWE2 051257Z 32017KT 07/M01 A3007 RMK A01 T00731011  RH  055%=      5-min Rain = 0
KWE2 051258Z 32017KT 07/M01 A3007 RMK A01 T00721011  RH  055%=      5-min Rain = 0
KWE2 051259Z 32017KT 07/M01 A3007 RMK A01 T00721011  RH  055%=      5-min Rain = 0
KWE2 051300Z 32017KT 07/M01 A3007 RMK A01 T00721011  RH  055%=      5-min Rain = 0
KWE2 051301Z 32015KT 07/M01 A3007 RMK A01 T00721011  RH  056%=      5-min Rain = 0
KWE2 051302Z 32015KT 07/M01 A3007 RMK A01 T00711011  RH  056%=      5-min Rain = 0
KWE2 051303Z 32016KT 07/M01 A3007 RMK A01 T00701011  RH  056%=      5-min Rain = 0
KWE2 051304Z 32016KT 07/M01 A3007 RMK A01 T00701011  RH  056%=      5-min Rain = 0
KWE2 051305Z 32015KT 07/M01 A3007 RMK A01 T00701012  RH  056%=      5-min Rain = 0
KWE2 051306Z 32014KT 07/M01 A3007 RMK A01 T00701012  RH  056%=      5-min Rain = 0
KWE2 051307Z 32015KT 07/M01 A3007 RMK A01 T00691012  RH  056%=      5-min Rain = 0
KWE2 051308Z 32014KT 07/M01 A3007 RMK A01 T00691013  RH  056%=      5-min Rain = 0
KWE2 051309Z 31014KT 07/M01 A3007 RMK A01 T00681013  RH  056%=      5-min Rain = 0
KWE2 051310Z 32015KT 07/M01 A3007 RMK A01 T00681013  RH  056%=      5-min Rain = 0
KWE2 051311Z 32014KT 07/M01 A3008 RMK A01 T00681013  RH  056%=      5-min Rain = 0
KWE2 051312Z 32014KT 07/M01 A3008 RMK A01 T00681013  RH  056%=      5-min Rain = 0
KWE2 051313Z 31014KT 07/M01 A3008 RMK A01 T00681013  RH  056%=      5-min Rain = 0
KWE2 051314Z 31015KT 07/M01 A3008 RMK A01 T00681014  RH  056%=      5-min Rain = 0
KWE2 051315Z 32015KT 07/M01 A3008 RMK A01 T00681014  RH  056%=      5-min Rain = 0
KWE2 051316Z 32014KT 07/M01 A3008 RMK A01 T00671014  RH  056%=      5-min Rain = 0
KWE2 051317Z 31016G21KT 07/M01 A3008 RMK A01 T00671014  RH  056%=      5-min Rain = 0
KWE2 051318Z 32016KT 07/M01 A3008 RMK A01 T00681014  RH  056%=      5-min Rain = 0
KWE2 051319Z 32017KT 07/M01 A3008 RMK A01 T00681014  RH  056%=      5-min Rain = 0
KWE2 051320Z 32016KT 07/M01 A3008 RMK A01 T00691014  RH  055%=      5-min Rain = 0
KWE2 051321Z 32014KT 07/M01 A3008 RMK A01 T00701014  RH  055%=      5-min Rain = 0
KWE2 051322Z 31015KT 07/M02 A3008 RMK A01 T00681015  RH  055%=      5-min Rain = 0
KWE2 051323Z 32014KT 07/M01 A3008 RMK A01 T00681014  RH  056%=      5-min Rain = 0
KWE2 051324Z 31014KT 07/M01 A3008 RMK A01 T00681014  RH  056%=      5-min Rain = 0
KWE2 051325Z 32016KT 07/M01 A3008 RMK A01 T00681014  RH  056%=      5-min Rain = 0
KWE2 051326Z 31015KT 07/M01 A3009 RMK A01 T00681014  RH  056%=      5-min Rain = 0
KWE2 051327Z 31015KT 07/M01 A3009 RMK A01 T00681014  RH  055%=      5-min Rain = 0
KWE2 051328Z 32015KT 07/M01 A3009 RMK A01 T00691014  RH  055%=      5-min Rain = 0
KWE2 051329Z 32015KT 07/M02 A3009 RMK A01 T00691015  RH  055%=      5-min Rain = 0
KWE2 051330Z 31015KT 07/M01 A3009 RMK A01 T00691014  RH  055%=      5-min Rain = 0
KWE2 051331Z 32016KT 07/M01 A3009 RMK A01 T00691014  RH  056%=      5-min Rain = 0
KWE2 051332Z 32015KT 07/M01 A3009 RMK A01 T00691013  RH  056%=      5-min Rain = 0
KWE2 051333Z 32015KT 07/M01 A3009 RMK A01 T00691013  RH  056%=      5-min Rain = 0
KWE2 051334Z 32015G21KT 07/M01 A3009 RMK A01 T00701013  RH  056%=      5-min Rain = 0
KWE2 051335Z 31016KT 07/M01 A3009 RMK A01 T00701012  RH  056%=      5-min Rain = 0
KWE2 051336Z 32016KT 07/M01 A3009 RMK A01 T00711011  RH  056%=      5-min Rain = 0
KWE2 051337Z 32017KT 07/M01 A3009 RMK A01 T00721010  RH  056%=      5-min Rain = 0
KWE2 051338Z 32017KT 07/M01 A3009 RMK A01 T00731009  RH  056%=      5-min Rain = 0
KWE2 051339Z 32017KT 07/M01 A3009 RMK A01 T00741009  RH  056%=      5-min Rain = 0
KWE2 051340Z 32017KT 07/M01 A3009 RMK A01 T00741008  RH  056%=      5-min Rain = 0
KWE2 051341Z 32016KT 08/M01 A3009 RMK A01 T00751008  RH  056%=      5-min Rain = 0
KWE2 051342Z 32017KT 08/M01 A3009 RMK A01 T00751007  RH  056%=      5-min Rain = 0
KWE2 051343Z 32016KT 08/M01 A3009 RMK A01 T00751007  RH  056%=      5-min Rain = 0
KWE2 051344Z 32017KT 08/M01 A3009 RMK A01 T00751006  RH  056%=      5-min Rain = 0
KWE2 051345Z 32017KT 08/M01 A3009 RMK A01 T00751005  RH  057%=      5-min Rain = 0
KWE2 051346Z 32016KT 08/M00 A3009 RMK A01 T00761004  RH  057%=      5-min Rain = 0
KWE2 051347Z 32017KT 08/M00 A3009 RMK A01 T00761004  RH  057%=      5-min Rain = 0
KWE2 051348Z 32018KT 08/M00 A3009 RMK A01 T00771003  RH  057%=      5-min Rain = 0
KWE2 051349Z 32015KT 08/M00 A3009 RMK A01 T00771003  RH  057%=      5-min Rain = 0
KWE2 051350Z 32017KT 08/M00 A3009 RMK A01 T00781002  RH  057%=      5-min Rain = 0
KWE2 051351Z 32017KT 08/M00 A301 RMK A01 T00781002  RH  057%=      5-min Rain = 0
KWE2 051352Z 32019KT 08/M00 A301 RMK A01 T00781001  RH  057%=      5-min Rain = 0
KWE2 051353Z 32018KT 08/00 A301 RMK A01 T00800001  RH  057%=      5-min Rain = 0
KWE2 051354Z 32017KT 08/00 A301 RMK A01 T00810001  RH  057%=      5-min Rain = 0
KWE2 051355Z 32019G24KT 08/00 A301 RMK A01 T00810003  RH  058%=      5-min Rain = 0
KWE2 051356Z 32018KT 08/01 A301 RMK A01 T00830005  RH  058%=      5-min Rain = 0
KWE2 051357Z 32018KT 08/01 A301 RMK A01 T00840006  RH  058%=      5-min Rain = 0
KWE2 051358Z 32019KT 09/01 A301 RMK A01 T00850007  RH  058%=      5-min Rain = 0
KWE2 051359Z 32020G25KT 09/01 A301 RMK A01 T00860008  RH  058%=      5-min Rain = 0
KWE2 051400Z 32021KT 09/01 A301 RMK A01 T00870008  RH  057%=      5-min Rain = 0
KWE2 051401Z 32020KT 09/01 A301 RMK A01 T00880009  RH  057%=      5-min Rain = 0
KWE2 051402Z 32020KT 09/01 A301 RMK A01 T00890009  RH  057%=      5-min Rain = 0
KWE2 051403Z 31019KT 09/01 A301 RMK A01 T00900009  RH  057%=      5-min Rain = 0
KWE2 051404Z 32019KT 09/01 A301 RMK A01 T00900009  RH  057%=      5-min Rain = 0
KWE2 051405Z 32020KT 09/01 A301 RMK A01 T00900009  RH  057%=      5-min Rain = 0
KWE2 051406Z 31019KT 09/01 A301 RMK A01 T00910009  RH  057%=      5-min Rain = 0
KWE2 051407Z 31017G22KT 09/01 A301 RMK A01 T00910009  RH  056%=      5-min Rain = 0
KWE2 051408Z 30019KT 09/01 A301 RMK A01 T00920009  RH  056%=      5-min Rain = 0
KWE2 051409Z 31018KT 09/01 A301 RMK A01 T00920008  RH  056%=      5-min Rain = 0
KWE2 051410Z 30019KT 09/01 A301 RMK A01 T00920008  RH  056%=      5-min Rain = 0
KWE2 051411Z 31017G22KT 09/01 A301 RMK A01 T00920008  RH  056%=      5-min Rain = 0
KWE2 051412Z 31018KT 09/01 A301 RMK A01 T00920008  RH  056%=      5-min Rain = 0
KWE2 051413Z 31017KT 09/01 A301 RMK A01 T00920008  RH  056%=      5-min Rain = 0
KWE2 051414Z 31017KT 09/01 A301 RMK A01 T00920008  RH  056%=      5-min Rain = 0
KWE2 051415Z 31016KT 09/01 A301 RMK A01 T00920008  RH  056%=      5-min Rain = 0
KWE2 051416Z 31018KT 09/01 A301 RMK A01 T00920009  RH  056%=      5-min Rain = 0
KWE2 051417Z 32021KT 09/01 A301 RMK A01 T00930009  RH  056%=      5-min Rain = 0
KWE2 051418Z 32020KT 09/01 A301 RMK A01 T00930009  RH  056%=      5-min Rain = 0
KWE2 051419Z 32019KT 09/01 A301 RMK A01 T00930009  RH  056%=      5-min Rain = 0
KWE2 051420Z 32020KT 09/01 A301 RMK A01 T00940010  RH  056%=      5-min Rain = 0
KWE2 051421Z 31022KT 09/01 A301 RMK A01 T00940010  RH  056%=      5-min Rain = 0
KWE2 051422Z 32020KT 10/01 A3011 RMK A01 T00950011  RH  056%=      5-min Rain = 0
KWE2 051423Z 32020KT 10/01 A3011 RMK A01 T00960011  RH  056%=      5-min Rain = 0
KWE2 051424Z 32020G26KT 10/01 A3011 RMK A01 T00950011  RH  056%=      5-min Rain = 0
KWE2 051425Z 32021G26KT 10/01 A3011 RMK A01 T00950011  RH  056%=      5-min Rain = 0
KWE2 051426Z 32019KT 09/01 A3011 RMK A01 T00940012  RH  056%=      5-min Rain = 0
KWE2 051427Z 32021G27KT 09/01 A3011 RMK A01 T00930012  RH  057%=      5-min Rain = 0
KWE2 051428Z 32022KT 09/01 A3011 RMK A01 T00930012  RH  057%=      5-min Rain = 0
KWE2 051429Z 32022KT 09/01 A3011 RMK A01 T00930012  RH  057%=      5-min Rain = 0
KWE2 051430Z 32022KT 09/01 A3011 RMK A01 T00930011  RH  057%=      5-min Rain = 0
KWE2 051431Z 32023KT 09/01 A3011 RMK A01 T00930012  RH  057%=      5-min Rain = 0
KWE2 051432Z 32022G27KT 09/01 A3011 RMK A01 T00940013  RH  057%=      5-min Rain = 0
KWE2 051433Z 33022KT 09/01 A3011 RMK A01 T00940013  RH  057%=      5-min Rain = 0
KWE2 051434Z 32023KT 09/01 A3011 RMK A01 T00940013  RH  057%=      5-min Rain = 0
KWE2 051435Z 32023KT 09/01 A3011 RMK A01 T00940013  RH  057%=      5-min Rain = 0
KWE2 051436Z 32022G27KT 10/01 A3011 RMK A01 T00950013  RH  057%=      5-min Rain = 0
KWE2 051437Z 32023G28KT 10/01 A3011 RMK A01 T00950013  RH  057%=      5-min Rain = 0
KWE2 051438Z 32020KT 10/01 A3011 RMK A01 T00960014  RH  057%=      5-min Rain = 0
KWE2 051439Z 32022G27KT 10/01 A3011 RMK A01 T00960014  RH  057%=      5-min Rain = 0
KWE2 051440Z 32021G30KT 10/01 A3011 RMK A01 T00960014  RH  057%=      5-min Rain = 0
KWE2 051441Z 32022G28KT 10/02 A3011 RMK A01 T00960015  RH  057%=      5-min Rain = 0
KWE2 051442Z 32022KT 10/02 A3011 RMK A01 T00960015  RH  057%=      5-min Rain = 0
KWE2 051443Z 32023KT 10/02 A3011 RMK A01 T00970016  RH  057%=      5-min Rain = 0
KWE2 051444Z 32022KT 10/02 A3011 RMK A01 T00980016  RH  057%=      5-min Rain = 0
KWE2 051445Z 32020KT 10/02 A3011 RMK A01 T00990017  RH  056%=      5-min Rain = 0
KWE2 051446Z 32023G29KT 10/02 A3011 RMK A01 T01010017  RH  056%=      5-min Rain = 0
KWE2 051447Z 32022KT 10/02 A3011 RMK A01 T01020018  RH  056%=      5-min Rain = 0
KWE2 051448Z 32023KT 10/02 A3011 RMK A01 T01030018  RH  056%=      5-min Rain = 0
KWE2 051449Z 32022G29KT 10/02 A3011 RMK A01 T01030019  RH  056%=      5-min Rain = 0
KWE2 051450Z 33026G31KT 10/02 A3012 RMK A01 T01040019  RH  056%=      5-min Rain = 0
KWE2 051451Z 32024G29KT 10/02 A3012 RMK A01 T01020019  RH  056%=      5-min Rain = 0
KWE2 051452Z 32024KT 10/02 A3012 RMK A01 T01000020  RH  057%=      5-min Rain = 0
KWE2 051453Z 32022G27KT 10/02 A3012 RMK A01 T01000021  RH  058%=      5-min Rain = 0
KWE2 051454Z 32025KT 10/02 A3012 RMK A01 T01010022  RH  058%=      5-min Rain = 0
KWE2 051455Z 33027KT 10/02 A3012 RMK A01 T01010022  RH  058%=      5-min Rain = 0
KWE2 051456Z 32020G26KT 10/02 A3012 RMK A01 T01010023  RH  058%=      5-min Rain = 0
KWE2 051457Z 32027G33KT 10/02 A3012 RMK A01 T01010023  RH  058%=      5-min Rain = 0
KWE2 051458Z 32026KT 10/02 A3012 RMK A01 T01020024  RH  058%=      5-min Rain = 0
KWE2 051459Z 32023G29KT 10/02 A3012 RMK A01 T01020024  RH  058%=      5-min Rain = 0
KWE2 051500Z 32021KT 10/03 A3012 RMK A01 T01030025  RH  058%=      5-min Rain = 0
KWE2 051501Z 32026G31KT 10/03 A3012 RMK A01 T01030025  RH  058%=      5-min Rain = 0
KWE2 051502Z 32024KT 10/03 A3012 RMK A01 T01030025  RH  058%=      5-min Rain = 0
KWE2 051503Z 32027KT 10/03 A3012 RMK A01 T01040025  RH  058%=      5-min Rain = 0
KWE2 051504Z 32026G32KT 10/03 A3012 RMK A01 T01040025  RH  058%=      5-min Rain = 0
KWE2 051505Z 32026KT 10/03 A3012 RMK A01 T01040025  RH  058%=      5-min Rain = 0
KWE2 051506Z 33027G32KT 11/03 A3012 RMK A01 T01050026  RH  058%=      5-min Rain = 0
KWE2 051507Z 33026KT 11/03 A3013 RMK A01 T01050027  RH  058%=      5-min Rain = 0
KWE2 051508Z 33024G30KT 11/03 A3012 RMK A01 T01060030  RH  059%=      5-min Rain = 0
KWE2 051509Z 33025KT 11/03 A3012 RMK A01 T01070031  RH  059%=      5-min Rain = 0
KWE2 051510Z 32025G30KT 11/03 A3013 RMK A01 T01070032  RH  060%=      5-min Rain = 0
KWE2 051511Z 32024KT 11/03 A3013 RMK A01 T01080034  RH  060%=      5-min Rain = 0
KWE2 051512Z 32027KT 11/04 A3013 RMK A01 T01090035  RH  060%=      5-min Rain = 0
KWE2 051513Z 33025KT 11/04 A3013 RMK A01 T01090036  RH  061%=      5-min Rain = 0
KWE2 051514Z 32028G36KT 11/04 A3013 RMK A01 T01090038  RH  061%=      5-min Rain = 0
KWE2 051515Z 33030G35KT 11/04 A3013 RMK A01 T01100038  RH  061%=      5-min Rain = 0
KWE2 051516Z 34028G34KT 11/04 A3013 RMK A01 T01090039  RH  062%=      5-min Rain = 0
KWE2 051517Z 33029G35KT 11/04 A3013 RMK A01 T01080040  RH  063%=      5-min Rain = 0
KWE2 051518Z 32029G36KT 11/04 A3013 RMK A01 T01080040  RH  063%=      5-min Rain = 0
KWE2 051519Z 33031G37KT 11/04 A3013 RMK A01 T01090042  RH  063%=      5-min Rain = 0
KWE2 051520Z 33031G36KT 11/04 A3013 RMK A01 T01100041  RH  063%=      5-min Rain = 0
KWE2 051521Z 33031G36KT 11/04 A3013 RMK A01 T01100042  RH  063%=      5-min Rain = 0
KWE2 051522Z 33031KT 11/04 A3013 RMK A01 T01110042  RH  062%=      5-min Rain = 0
KWE2 051523Z 33027G32KT 11/04 A3013 RMK A01 T01110042  RH  062%=      5-min Rain = 0
KWE2 051524Z 33027G32KT 11/04 A3013 RMK A01 T01130043  RH  062%=      5-min Rain = 0
KWE2 051525Z 32032KT 11/04 A3013 RMK A01 T01140043  RH  062%=      5-min Rain = 0
KWE2 051526Z 32032KT 11/04 A3013 RMK A01 T01130042  RH  061%=      5-min Rain = 0
KWE2 051527Z 33029G35KT 11/04 A3013 RMK A01 T01120042  RH  062%=      5-min Rain = 0
KWE2 051528Z 33026G34KT 11/04 A3013 RMK A01 T01110043  RH  063%=      5-min Rain = 0
KWE2 051529Z 32025G33KT 11/04 A3013 RMK A01 T01110042  RH  063%=      5-min Rain = 0
KWE2 051530Z 32031G36KT 11/04 A3013 RMK A01 T01110042  RH  062%=      5-min Rain = 0
KWE2 051531Z 32025G30KT 11/04 A3013 RMK A01 T01120043  RH  063%=      5-min Rain = 0
KWE2 051532Z 33028G33KT 11/04 A3014 RMK A01 T01130043  RH  062%=      5-min Rain = 0
KWE2 051533Z 33030KT 12/04 A3013 RMK A01 T01150044  RH  062%=      5-min Rain = 0
KWE2 051534Z 33028G35KT 12/04 A3013 RMK A01 T01150043  RH  061%=      5-min Rain = 0
KWE2 051535Z 33033KT 11/04 A3013 RMK A01 T01140043  RH  062%=      5-min Rain = 0
KWE2 051536Z 33033KT 11/04 A3013 RMK A01 T01120042  RH  062%=      5-min Rain = 0
KWE2 051537Z 33033G39KT 11/04 A3013 RMK A01 T01110042  RH  062%=      5-min Rain = 0
KWE2 051538Z 34030G36KT 11/04 A3013 RMK A01 T01110043  RH  063%=      5-min Rain = 0
KWE2 051539Z 34028KT 11/04 A3013 RMK A01 T01100043  RH  063%=      5-min Rain = 0
KWE2 051540Z 34026G31KT 11/04 A3014 RMK A01 T01110043  RH  063%=      5-min Rain = 0
KWE2 051541Z 33027G33KT 11/04 A3014 RMK A01 T01120044  RH  063%=      5-min Rain = 0
KWE2 051542Z 33028G34KT 11/04 A3014 RMK A01 T01120044  RH  063%=      5-min Rain = 0
KWE2 051543Z 32029G34KT 11/04 A3014 RMK A01 T01110044  RH  063%=      5-min Rain = 0
KWE2 051544Z 32028KT 11/05 A3014 RMK A01 T01100045  RH  064%=      5-min Rain = 0
KWE2 051545Z 33025KT 11/05 A3014 RMK A01 T01100045  RH  064%=      5-min Rain = 0
KWE2 051546Z 33029G36KT 11/05 A3014 RMK A01 T01110045  RH  064%=      5-min Rain = 0
KWE2 051547Z 32032G37KT 11/05 A3014 RMK A01 T01110045  RH  064%=      5-min Rain = 0
KWE2 051548Z 32028G36KT 11/05 A3014 RMK A01 T01100045  RH  064%=      5-min Rain = 0
KWE2 051549Z 33030KT 11/05 A3014 RMK A01 T01110045  RH  064%=      5-min Rain = 0
KWE2 051550Z 32032G37KT 11/05 A3014 RMK A01 T01110045  RH  064%=      5-min Rain = 0
KWE2 051551Z 32031G36KT 11/05 A3014 RMK A01 T01110045  RH  064%=      5-min Rain = 0
KWE2 051552Z 33033G38KT 11/05 A3014 RMK A01 T01110045  RH  064%=      5-min Rain = 0
KWE2 051553Z 33031G40KT 11/05 A3014 RMK A01 T01110046  RH  064%=      5-min Rain = 0
KWE2 051554Z 34029G38KT 11/05 A3014 RMK A01 T01110046  RH  064%=      5-min Rain = 0
KWE2 051555Z 34031G36KT 11/05 A3014 RMK A01 T01100046  RH  064%=      5-min Rain = 0
KWE2 051556Z 33036KT 11/05 A3014 RMK A01 T01110046  RH  064%=      5-min Rain = 0
KWE2 051557Z 33033KT 11/05 A3014 RMK A01 T01110046  RH  064%=      5-min Rain = 0
KWE2 051558Z 34030G39KT 11/05 A3014 RMK A01 T01110046  RH  064%=      5-min Rain = 0
KWE2 051559Z 33035KT 11/05 A3014 RMK A01 T01120045  RH  063%=      5-min Rain = 0
KWE2 051600Z 34033KT 11/04 A3014 RMK A01 T01110044  RH  063%=      5-min Rain = 0
KWE2 051601Z 34029G34KT 11/04 A3014 RMK A01 T01110044  RH  063%=      5-min Rain = 0
KWE2 051602Z 34032G38KT 11/05 A3014 RMK A01 T01130045  RH  063%=      5-min Rain = 0
KWE2 051603Z 34032KT 12/05 A3014 RMK A01 T01150046  RH  062%=      5-min Rain = 0
KWE2 051604Z 35030G36KT 12/05 A3014 RMK A01 T01160046  RH  062%=      5-min Rain = 0
KWE2 051605Z 34029G37KT 12/05 A3014 RMK A01 T01180047  RH  062%=      5-min Rain = 0
KWE2 051606Z 35032G38KT 12/05 A3014 RMK A01 T01190046  RH  061%=      5-min Rain = 0
KWE2 051607Z 35035G41KT 12/05 A3014 RMK A01 T01180046  RH  061%=      5-min Rain = 0
KWE2 051608Z 34029G34KT 12/05 A3014 RMK A01 T01160045  RH  061%=      5-min Rain = 0
KWE2 051609Z 33033KT 12/05 A3014 RMK A01 T01160045  RH  062%=      5-min Rain = 0
KWE2 051610Z 34039G46KT 12/04 A3014 RMK A01 T01160043  RH  061%=      5-min Rain = 0
KWE2 051611Z 34037G42KT 11/04 A3014 RMK A01 T01140042  RH  061%=      5-min Rain = 0
KWE2 051612Z 34036G41KT 11/04 A3014 RMK A01 T01130042  RH  062%=      5-min Rain = 0
KWE2 051613Z 33037G42KT 11/04 A3014 RMK A01 T01120043  RH  062%=      5-min Rain = 0
KWE2 051614Z 33038G44KT 11/04 A3014 RMK A01 T01120042  RH  062%=      5-min Rain = 0
KWE2 051615Z 35036G41KT 11/04 A3015 RMK A01 T01110042  RH  062%=      5-min Rain = 0
KWE2 051616Z 34034G42KT 11/04 A3015 RMK A01 T01110042  RH  063%=      5-min Rain = 0
KWE2 051617Z 35035KT 11/04 A3015 RMK A01 T01090042  RH  063%=      5-min Rain = 0
KWE2 051618Z 34033G41KT 11/04 A3015 RMK A01 T01080042  RH  064%=      5-min Rain = 0
KWE2 051619Z 33034G40KT 11/04 A3015 RMK A01 T01080042  RH  064%=      5-min Rain = 0
KWE2 051620Z 35034G39KT 11/04 A3015 RMK A01 T01080042  RH  064%=      5-min Rain = 0
KWE2 051621Z 35032G37KT 11/04 A3015 RMK A01 T01080043  RH  064%=      5-min Rain = 0
KWE2 051622Z 34035G44KT 11/04 A3015 RMK A01 T01090043  RH  064%=      5-min Rain = 0
KWE2 051623Z 34034G39KT 11/04 A3015 RMK A01 T01090043  RH  064%=      5-min Rain = 0
KWE2 051624Z 33035KT 11/04 A3015 RMK A01 T01090043  RH  064%=      5-min Rain = 0
KWE2 051625Z 33032KT 11/04 A3016 RMK A01 T01080043  RH  064%=      5-min Rain = 0
KWE2 051626Z 33029KT 11/04 A3016 RMK A01 T01080044  RH  064%=      5-min Rain = 0
KWE2 051627Z 34033KT 11/04 A3016 RMK A01 T01090044  RH  064%=      5-min Rain = 0
KWE2 051628Z 34031G38KT 11/04 A3016 RMK A01 T01090043  RH  064%=      5-min Rain = 0
KWE2 051629Z 34028G35KT 11/04 A3016 RMK A01 T01090044  RH  064%=      5-min Rain = 0
KWE2 051630Z 34032G37KT 11/04 A3016 RMK A01 T01100044  RH  064%=      5-min Rain = 0
KWE2 051631Z 34030KT 11/04 A3016 RMK A01 T01090043  RH  064%=      5-min Rain = 0
KWE2 051632Z 34030KT 11/04 A3016 RMK A01 T01090044  RH  064%=      5-min Rain = 0
KWE2 051633Z 33032KT 11/04 A3016 RMK A01 T01090043  RH  064%=      5-min Rain = 0
KWE2 051634Z 33031G37KT 11/04 A3016 RMK A01 T01080044  RH  065%=      5-min Rain = 0
KWE2 051635Z 33030KT 11/04 A3016 RMK A01 T01070044  RH  065%=      5-min Rain = 0
KWE2 051636Z 33028KT 11/05 A3016 RMK A01 T01070045  RH  065%=      5-min Rain = 0
KWE2 051637Z 34027KT 11/05 A3017 RMK A01 T01070045  RH  065%=      5-min Rain = 0
KWE2 051638Z 33031KT 11/05 A3016 RMK A01 T01080045  RH  065%=      5-min Rain = 0
KWE2 051639Z 33032KT 11/05 A3017 RMK A01 T01070045  RH  065%=      5-min Rain = 0
KWE2 051640Z 34028G33KT 11/05 A3017 RMK A01 T01070045  RH  065%=      5-min Rain = 0
KWE2 051641Z 35025G30KT 11/05 A3017 RMK A01 T01080045  RH  065%=      5-min Rain = 0
KWE2 051642Z 33024KT 11/05 A3017 RMK A01 T01090046  RH  065%=      5-min Rain = 0
KWE2 051643Z 34023G30KT 11/05 A3016 RMK A01 T01120047  RH  064%=      5-min Rain = 0
KWE2 051644Z 33023KT 12/05 A3016 RMK A01 T01170048  RH  063%=      5-min Rain = 0
KWE2 051645Z 35026G34KT 12/05 A3016 RMK A01 T01200049  RH  062%=      5-min Rain = 0
KWE2 051646Z 34034G39KT 12/05 A3016 RMK A01 T01210047  RH  060%=      5-min Rain = 0
KWE2 051647Z 33029KT 12/05 A3017 RMK A01 T01190046  RH  061%=      5-min Rain = 0
KWE2 051648Z 34030KT 12/05 A3017 RMK A01 T01190046  RH  061%=      5-min Rain = 0
KWE2 051649Z 34030G37KT 12/05 A3017 RMK A01 T01180046  RH  061%=      5-min Rain = 0
KWE2 051650Z 34030G35KT 12/05 A3017 RMK A01 T01170046  RH  062%=      5-min Rain = 0
KWE2 051651Z 34027KT 12/05 A3017 RMK A01 T01160046  RH  062%=      5-min Rain = 0
KWE2 051652Z 35025G31KT 12/05 A3017 RMK A01 T01180047  RH  062%=      5-min Rain = 0
KWE2 051653Z 35027KT 12/05 A3017 RMK A01 T01220048  RH  061%=      5-min Rain = 0
KWE2 051654Z 34031KT 12/05 A3017 RMK A01 T01220047  RH  060%=      5-min Rain = 0
KWE2 051655Z 35026KT 12/05 A3017 RMK A01 T01220047  RH  060%=      5-min Rain = 0
KWE2 051656Z 35028KT 12/05 A3017 RMK A01 T01220047  RH  060%=      5-min Rain = 0
KWE2 051657Z 35029G35KT 12/05 A3017 RMK A01 T01230047  RH  060%=      5-min Rain = 0
KWE2 051658Z 35026G32KT 12/05 A3017 RMK A01 T01230047  RH  059%=      5-min Rain = 0
KWE2 051659Z 33026G33KT 12/05 A3017 RMK A01 T01240047  RH  059%=      5-min Rain = 0
KWE2 051700Z 35031G37KT 12/05 A3017 RMK A01 T01240045  RH  059%=      5-min Rain = 0
KWE2 051701Z 35032KT 12/05 A3017 RMK A01 T01230046  RH  059%=      5-min Rain = 0
KWE2 051702Z 35031KT 12/05 A3017 RMK A01 T01230046  RH  059%=      5-min Rain = 0
KWE2 051703Z 00028KT 12/05 A3017 RMK A01 T01220045  RH  059%=      5-min Rain = 0
KWE2 051704Z 36029KT 12/05 A3017 RMK A01 T01240046  RH  059%=      5-min Rain = 0
KWE2 051705Z 00025KT 13/05 A3017 RMK A01 T01250047  RH  059%=      5-min Rain = 0
KWE2 051706Z 35025G30KT 13/05 A3017 RMK A01 T01270047  RH  058%=      5-min Rain = 0
KWE2 051707Z 36021KT 13/05 A3018 RMK A01 T01270047  RH  058%=      5-min Rain = 0
KWE2 051708Z 36029G35KT 13/05 A3017 RMK A01 T01290047  RH  058%=      5-min Rain = 0
KWE2 051709Z 00028KT 13/04 A3017 RMK A01 T01280044  RH  057%=      5-min Rain = 0
KWE2 051710Z 00031G36KT 13/05 A3017 RMK A01 T01280045  RH  057%=      5-min Rain = 0
KWE2 051711Z 00027G32KT 13/05 A3018 RMK A01 T01280045  RH  057%=      5-min Rain = 0
KWE2 051712Z 00023KT 13/05 A3018 RMK A01 T01300047  RH  057%=      5-min Rain = 0
KWE2 051713Z 35028G37KT 13/05 A3017 RMK A01 T01330048  RH  056%=      5-min Rain = 0
KWE2 051714Z 36028KT 13/04 A3018 RMK A01 T01300044  RH  056%=      5-min Rain = 0
KWE2 051715Z 00027KT 13/04 A3018 RMK A01 T01290044  RH  056%=      5-min Rain = 0
KWE2 051716Z 00028KT 13/05 A3018 RMK A01 T01280045  RH  057%=      5-min Rain = 0
KWE2 051717Z 36029G34KT 13/04 A3018 RMK A01 T01270044  RH  057%=      5-min Rain = 0
KWE2 051718Z 00029KT 13/04 A3018 RMK A01 T01260044  RH  057%=      5-min Rain = 0
KWE2 051719Z 36027G33KT 13/04 A3018 RMK A01 T01250044  RH  058%=      5-min Rain = 0
KWE2 051720Z 35027KT 13/04 A3018 RMK A01 T01270043  RH  057%=      5-min Rain = 0
KWE2 051721Z 35030G36KT 13/04 A3018 RMK A01 T01290043  RH  056%=      5-min Rain = 0
KWE2 051722Z 01030G36KT 13/04 A3018 RMK A01 T01290044  RH  056%=      5-min Rain = 0
KWE2 051723Z 01026G31KT 13/04 A3018 RMK A01 T01300043  RH  055%=      5-min Rain = 0
KWE2 051724Z 34025KT 13/04 A3018 RMK A01 T01300044  RH  056%=      5-min Rain = 0
KWE2 051725Z 01024KT 13/05 A3018 RMK A01 T01300046  RH  057%=      5-min Rain = 0
KWE2 051726Z 01026G31KT 13/05 A3018 RMK A01 T01290045  RH  057%=      5-min Rain = 0
KWE2 051727Z 01025G30KT 13/05 A3018 RMK A01 T01300045  RH  056%=      5-min Rain = 0
KWE2 051728Z 01024G29KT 13/05 A3018 RMK A01 T01300045  RH  056%=      5-min Rain = 0
KWE2 051729Z 00026G31KT 13/05 A3018 RMK A01 T01300045  RH  056%=      5-min Rain = 0
KWE2 051730Z 36027KT 13/04 A3018 RMK A01 T01290044  RH  056%=      5-min Rain = 0
KWE2 051731Z 36027KT 13/04 A3018 RMK A01 T01270044  RH  057%=      5-min Rain = 0
KWE2 051732Z 00025KT 13/04 A3018 RMK A01 T01250044  RH  058%=      5-min Rain = 0
KWE2 051733Z 00030KT 13/04 A3018 RMK A01 T01250044  RH  058%=      5-min Rain = 0
KWE2 051734Z 01025G31KT 13/04 A3018 RMK A01 T01250042  RH  057%=      5-min Rain = 0
KWE2 051735Z 01024G30KT 13/04 A3019 RMK A01 T01260042  RH  057%=      5-min Rain = 0
KWE2 051736Z 00028G33KT 13/04 A3018 RMK A01 T01260039  RH  055%=      5-min Rain = 0
KWE2 051737Z 00030KT 13/04 A3019 RMK A01 T01260037  RH  055%=      5-min Rain = 0
KWE2 051738Z 01028G33KT 13/04 A3019 RMK A01 T01270037  RH  054%=      5-min Rain = 0
KWE2 051739Z 00023G28KT 13/04 A3019 RMK A01 T01270037  RH  054%=      5-min Rain = 0
KWE2 051740Z 00023KT 13/04 A3019 RMK A01 T01270037  RH  054%=      5-min Rain = 0
KWE2 051741Z 01019G25KT 13/04 A3019 RMK A01 T01290038  RH  054%=      5-min Rain = 0
KWE2 051742Z 02026KT 13/04 A3019 RMK A01 T01320038  RH  053%=      5-min Rain = 0
KWE2 051743Z 02025G30KT 13/04 A3019 RMK A01 T01340038  RH  052%=      5-min Rain = 0
KWE2 051744Z 02022KT 14/04 A3019 RMK A01 T01360039  RH  052%=      5-min Rain = 0
KWE2 051745Z 01027KT 14/04 A3019 RMK A01 T01390039  RH  051%=      5-min Rain = 0
KWE2 051746Z 01024G29KT 14/04 A3019 RMK A01 T01360036  RH  051%=      5-min Rain = 0
KWE2 051747Z 01027KT 13/04 A3019 RMK A01 T01340036  RH  051%=      5-min Rain = 0
KWE2 051748Z 01027KT 13/03 A3019 RMK A01 T01320034  RH  052%=      5-min Rain = 0
KWE2 051749Z 01027KT 13/04 A3019 RMK A01 T01310035  RH  052%=      5-min Rain = 0
KWE2 051750Z 01025KT 13/04 A3019 RMK A01 T01330036  RH  052%=      5-min Rain = 0
KWE2 051751Z 02031KT 14/04 A3018 RMK A01 T01380038  RH  051%=      5-min Rain = 0
KWE2 051752Z 02025KT 14/04 A3019 RMK A01 T01380036  RH  050%=      5-min Rain = 0
KWE2 051753Z 02025G32KT 14/04 A3019 RMK A01 T01400038  RH  050%=      5-min Rain = 0
KWE2 051754Z 02027KT 14/04 A3019 RMK A01 T01410038  RH  050%=      5-min Rain = 0
KWE2 051755Z 03026KT 14/04 A3019 RMK A01 T01400037  RH  050%=      5-min Rain = 0
KWE2 051756Z 02027G35KT 14/04 A3019 RMK A01 T01380038  RH  051%=      5-min Rain = 0
KWE2 051757Z 02028G33KT 14/04 A3019 RMK A01 T01410038  RH  050%=      5-min Rain = 0
KWE2 051758Z 01023G29KT 14/04 A3019 RMK A01 T01410040  RH  050%=      5-min Rain = 0
KWE2 051759Z 01024G30KT 14/04 A3019 RMK A01 T01440040  RH  050%=      5-min Rain = 0
KWE2 051800Z 02021KT 14/04 A3019 RMK A01 T01420039  RH  050%=      5-min Rain = 0
KWE2 051801Z 02021G27KT 14/04 A3019 RMK A01 T01390039  RH  051%=      5-min Rain = 0
KWE2 051802Z 03023G28KT 14/04 A3019 RMK A01 T01380038  RH  051%=      5-min Rain = 0
KWE2 051803Z 02022KT 14/04 A3019 RMK A01 T01360039  RH  052%=      5-min Rain = 0
KWE2 051804Z 01027G35KT 14/04 A3019 RMK A01 T01350038  RH  052%=      5-min Rain = 0
KWE2 051805Z 02025G31KT 14/04 A3019 RMK A01 T01350038  RH  052%=      5-min Rain = 0
KWE2 051806Z 02028KT 14/04 A3019 RMK A01 T01350037  RH  052%=      5-min Rain = 0
KWE2 051807Z 02028G33KT 13/04 A3019 RMK A01 T01330038  RH  052%=      5-min Rain = 0
KWE2 051808Z 02027KT 13/04 A3019 RMK A01 T01320039  RH  053%=      5-min Rain = 0
KWE2 051809Z 02026G34KT 13/04 A3019 RMK A01 T01320041  RH  054%=      5-min Rain = 0
KWE2 051810Z 02027KT 13/04 A3019 RMK A01 T01310038  RH  053%=      5-min Rain = 0
KWE2 051811Z 02025KT 13/04 A3019 RMK A01 T01280039  RH  054%=      5-min Rain = 0
KWE2 051812Z 02022G28KT 13/04 A3019 RMK A01 T01290041  RH  055%=      5-min Rain = 0
KWE2 051813Z 01021G26KT 13/04 A302 RMK A01 T01300042  RH  055%=      5-min Rain = 0
KWE2 051814Z 01021KT 13/04 A302 RMK A01 T01320042  RH  055%=      5-min Rain = 0
KWE2 051815Z 02027G32KT 13/04 A302 RMK A01 T01330042  RH  054%=      5-min Rain = 0
KWE2 051816Z 02025G30KT 13/04 A302 RMK A01 T01300040  RH  054%=      5-min Rain = 0
KWE2 051817Z 01021KT 13/04 A302 RMK A01 T01280042  RH  055%=      5-min Rain = 0
KWE2 051818Z 02023G29KT 13/04 A302 RMK A01 T01300043  RH  055%=      5-min Rain = 0
KWE2 051819Z 02023KT 13/04 A302 RMK A01 T01300041  RH  055%=      5-min Rain = 0
KWE2 051820Z 01021KT 13/04 A302 RMK A01 T01310043  RH  055%=      5-min Rain = 0
KWE2 051821Z 02023KT 13/04 A302 RMK A01 T01330044  RH  055%=      5-min Rain = 0
KWE2 051822Z 02026KT 13/04 A302 RMK A01 T01300041  RH  055%=      5-min Rain = 0
KWE2 051823Z 01026G31KT 13/04 A302 RMK A01 T01270041  RH  055%=      5-min Rain = 0
KWE2 051824Z 00021KT 13/04 A302 RMK A01 T01280043  RH  056%=      5-min Rain = 0
KWE2 051825Z 01024KT 13/04 A302 RMK A01 T01310044  RH  055%=      5-min Rain = 0
KWE2 051826Z 00022G27KT 13/04 A302 RMK A01 T01320044  RH  055%=      5-min Rain = 0
KWE2 051827Z 01027KT 13/04 A302 RMK A01 T01340044  RH  054%=      5-min Rain = 0
KWE2 051828Z 02026G31KT 14/04 A302 RMK A01 T01370043  RH  053%=      5-min Rain = 0
KWE2 051829Z 01026KT 14/04 A3019 RMK A01 T01400043  RH  052%=      5-min Rain = 0
KWE2 051830Z 02025KT 14/04 A302 RMK A01 T01370041  RH  052%=      5-min Rain = 0
KWE2 051831Z 01024KT 14/04 A3019 RMK A01 T01380043  RH  052%=      5-min Rain = 0
KWE2 051832Z 00025KT 14/04 A3019 RMK A01 T01400042  RH  052%=      5-min Rain = 0
KWE2 051833Z 01025KT 14/04 A3019 RMK A01 T01390041  RH  052%=      5-min Rain = 0
KWE2 051834Z 01025G32KT 14/04 A3019 RMK A01 T01410042  RH  051%=      5-min Rain = 0
KWE2 051835Z 00027KT 14/04 A3019 RMK A01 T01400041  RH  051%=      5-min Rain = 0
KWE2 051836Z 36026KT 14/04 A3019 RMK A01 T01380040  RH  052%=      5-min Rain = 0
KWE2 051837Z 36021KT 14/04 A3019 RMK A01 T01400043  RH  052%=      5-min Rain = 0
KWE2 051838Z 36020KT 15/05 A3019 RMK A01 T01450045  RH  051%=      5-min Rain = 0
KWE2 051839Z 01025KT 15/04 A3019 RMK A01 T01450043  RH  050%=      5-min Rain = 0
KWE2 051840Z 01025KT 14/04 A3019 RMK A01 T01440041  RH  050%=      5-min Rain = 0
KWE2 051841Z 00026KT 14/04 A3019 RMK A01 T01420042  RH  051%=      5-min Rain = 0
KWE2 051842Z 35025G32KT 14/04 A3019 RMK A01 T01430043  RH  051%=      5-min Rain = 0
KWE2 051843Z 36027KT 14/04 A3019 RMK A01 T01430042  RH  051%=      5-min Rain = 0
KWE2 051844Z 35027KT 14/04 A3019 RMK A01 T01390041  RH  052%=      5-min Rain = 0
KWE2 051845Z 35026KT 14/04 A3018 RMK A01 T01380041  RH  052%=      5-min Rain = 0
KWE2 051846Z 36024KT 14/04 A3018 RMK A01 T01370042  RH  052%=      5-min Rain = 0
KWE2 051847Z 00028KT 14/04 A3018 RMK A01 T01400043  RH  052%=      5-min Rain = 0
KWE2 051848Z 36028KT 14/04 A3018 RMK A01 T01410041  RH  051%=      5-min Rain = 0
KWE2 051849Z 00028KT 14/04 A3018 RMK A01 T01400041  RH  051%=      5-min Rain = 0
KWE2 051850Z 36025G30KT 14/04 A3018 RMK A01 T01400041  RH  051%=      5-min Rain = 0
KWE2 051851Z 01025KT 14/04 A3018 RMK A01 T01420042  RH  051%=      5-min Rain = 0
KWE2 051852Z 01027KT 15/04 A3018 RMK A01 T01460042  RH  050%=      5-min Rain = 0
KWE2 051853Z 01025G31KT 15/04 A3018 RMK A01 T01470042  RH  049%=      5-min Rain = 0
KWE2 051854Z 35025KT 15/04 A3018 RMK A01 T01480043  RH  049%=      5-min Rain = 0
KWE2 051855Z 34027KT 15/04 A3018 RMK A01 T01500041  RH  048%=      5-min Rain = 0
KWE2 051856Z 34025G30KT 15/04 A3018 RMK A01 T01490041  RH  048%=      5-min Rain = 0
KWE2 051857Z 35026G32KT 15/04 A3018 RMK A01 T01490041  RH  049%=      5-min Rain = 0
KWE2 051858Z 36027G33KT 15/04 A3018 RMK A01 T01500042  RH  048%=      5-min Rain = 0
KWE2 051859Z 35027KT 15/04 A3018 RMK A01 T01490041  RH  048%=      5-min Rain = 0
KWE2 051900Z 35027G32KT 14/04 A3018 RMK A01 T01440040  RH  049%=      5-min Rain = 0
KWE2 051901Z 35029G34KT 14/04 A3018 RMK A01 T01440041  RH  050%=      5-min Rain = 0
KWE2 051902Z 35028KT 15/04 A3018 RMK A01 T01470041  RH  049%=      5-min Rain = 0
KWE2 051903Z 36031KT 15/04 A3018 RMK A01 T01480041  RH  049%=      5-min Rain = 0
KWE2 051904Z 00029G34KT 15/04 A3018 RMK A01 T01480039  RH  048%=      5-min Rain = 0
KWE2 051905Z 00027KT 15/04 A3018 RMK A01 T01510041  RH  048%=      5-min Rain = 0
KWE2 051906Z 01026G32KT 15/04 A3018 RMK A01 T01510041  RH  048%=      5-min Rain = 0
KWE2 051907Z 36032KT 15/04 A3018 RMK A01 T01480039  RH  048%=      5-min Rain = 0
KWE2 051908Z 00031KT 14/04 A3018 RMK A01 T01440038  RH  049%=      5-min Rain = 0
KWE2 051909Z 01028G34KT 14/04 A3018 RMK A01 T01430039  RH  049%=      5-min Rain = 0
KWE2 051910Z 00027KT 15/04 A3018 RMK A01 T01460039  RH  049%=      5-min Rain = 0
KWE2 051911Z 01029G34KT 15/04 A3018 RMK A01 T01500042  RH  048%=      5-min Rain = 0
KWE2 051912Z 01026KT 15/04 A3018 RMK A01 T01520042  RH  048%=      5-min Rain = 0
KWE2 051913Z 01027G32KT 15/04 A3018 RMK A01 T01500040  RH  048%=      5-min Rain = 0
KWE2 051914Z 00025G30KT 15/04 A3019 RMK A01 T01470039  RH  048%=      5-min Rain = 0
KWE2 051915Z 36026KT 15/04 A3019 RMK A01 T01470040  RH  049%=      5-min Rain = 0
KWE2 051916Z 00025KT 15/04 A3019 RMK A01 T01470040  RH  049%=      5-min Rain = 0
KWE2 051917Z 01026KT 15/04 A3019 RMK A01 T01480040  RH  048%=      5-min Rain = 0
KWE2 051918Z 36028KT 15/04 A3019 RMK A01 T01480037  RH  047%=      5-min Rain = 0
KWE2 051919Z 00025KT 15/04 A3018 RMK A01 T01490037  RH  047%=      5-min Rain = 0
KWE2 051920Z 00027KT 15/04 A3019 RMK A01 T01520040  RH  047%=      5-min Rain = 0
KWE2 051921Z 01026KT 15/04 A3019 RMK A01 T01510037  RH  047%=      5-min Rain = 0
KWE2 051922Z 01026G31KT 15/04 A3019 RMK A01 T01480037  RH  047%=      5-min Rain = 0
KWE2 051923Z 01028KT 15/04 A3019 RMK A01 T01510039  RH  047%=      5-min Rain = 0
KWE2 051924Z 01028KT 15/04 A3019 RMK A01 T01530037  RH  046%=      5-min Rain = 0
KWE2 051925Z 01029KT 15/04 A3019 RMK A01 T01530037  RH  046%=      5-min Rain = 0
KWE2 051926Z 01030KT 15/04 A3019 RMK A01 T01530036  RH  046%=      5-min Rain = 0
KWE2 051927Z 01026G32KT 15/04 A3019 RMK A01 T01480035  RH  047%=      5-min Rain = 0
KWE2 051928Z 02023G29KT 15/04 A3019 RMK A01 T01480038  RH  048%=      5-min Rain = 0
KWE2 051929Z 02025KT 15/04 A3019 RMK A01 T01500038  RH  047%=      5-min Rain = 0
KWE2 051930Z 00029KT 15/04 A3019 RMK A01 T01480038  RH  047%=      5-min Rain = 0
KWE2 051931Z 00025KT 14/04 A3019 RMK A01 T01440036  RH  048%=      5-min Rain = 0
KWE2 051932Z 01028KT 14/04 A3019 RMK A01 T01420036  RH  049%=      5-min Rain = 0
KWE2 051933Z 01028KT 14/03 A3019 RMK A01 T01400034  RH  049%=      5-min Rain = 0
KWE2 051934Z 01027KT 14/04 A3019 RMK A01 T01410036  RH  049%=      5-min Rain = 0
KWE2 051935Z 36026KT 14/04 A3019 RMK A01 T01430035  RH  048%=      5-min Rain = 0
KWE2 051936Z 00026G31KT 15/04 A3019 RMK A01 T01450036  RH  048%=      5-min Rain = 0
KWE2 051937Z 00028G34KT 15/03 A3019 RMK A01 T01460034  RH  047%=      5-min Rain = 0
KWE2 051938Z 35028KT 15/04 A3019 RMK A01 T01460035  RH  047%=      5-min Rain = 0
KWE2 051939Z 01024KT 15/04 A3019 RMK A01 T01480037  RH  047%=      5-min Rain = 0
KWE2 051940Z 00027G33KT 15/04 A3019 RMK A01 T01520038  RH  047%=      5-min Rain = 0
KWE2 051941Z 01030G36KT 15/03 A3019 RMK A01 T01500034  RH  046%=      5-min Rain = 0
KWE2 051942Z 02032G38KT 14/03 A3019 RMK A01 T01430027  RH  046%=      5-min Rain = 0
KWE2 051943Z 01028KT 14/03 A3019 RMK A01 T01400028  RH  047%=      5-min Rain = 0
KWE2 051944Z 02029G34KT 14/03 A3019 RMK A01 T01430032  RH  047%=      5-min Rain = 0
KWE2 051945Z 01029G35KT 15/03 A3019 RMK A01 T01450033  RH  047%=      5-min Rain = 0
KWE2 051946Z 01026G31KT 15/03 A3019 RMK A01 T01460034  RH  047%=      5-min Rain = 0
KWE2 051947Z 01028KT 15/04 A3018 RMK A01 T01470035  RH  047%=      5-min Rain = 0
KWE2 051948Z 01028G33KT 15/04 A3019 RMK A01 T01480036  RH  047%=      5-min Rain = 0
KWE2 051949Z 01027G34KT 15/04 A3018 RMK A01 T01490035  RH  046%=      5-min Rain = 0
KWE2 051950Z 01026G31KT 15/04 A3019 RMK A01 T01450035  RH  047%=      5-min Rain = 0
KWE2 051951Z 01023G31KT 14/04 A3019 RMK A01 T01430035  RH  048%=      5-min Rain = 0
KWE2 051952Z 00029KT 14/03 A3019 RMK A01 T01420033  RH  048%=      5-min Rain = 0
KWE2 051953Z 00026KT 14/03 A3019 RMK A01 T01430032  RH  047%=      5-min Rain = 0
KWE2 051954Z 36026G31KT 15/03 A3019 RMK A01 T01460034  RH  047%=      5-min Rain = 0
KWE2 051955Z 36027KT 15/03 A3019 RMK A01 T01490034  RH  046%=      5-min Rain = 0
KWE2 051956Z 01021KT 14/03 A3019 RMK A01 T01440032  RH  047%=      5-min Rain = 0
KWE2 051957Z 01028G33KT 14/03 A3019 RMK A01 T01420032  RH  047%=      5-min Rain = 0
KWE2 051958Z 02025G30KT 14/03 A3019 RMK A01 T01410029  RH  047%=      5-min Rain = 0
KWE2 051959Z 02024G30KT 14/03 A3019 RMK A01 T01400028  RH  047%=      5-min Rain = 0
KWE2 052000Z 01026KT 14/03 A3018 RMK A01 T01400029  RH  047%=      5-min Rain = 0
KWE2 052001Z 01023KT 14/03 A3018 RMK A01 T01430032  RH  047%=      5-min Rain = 0
KWE2 052002Z 36026KT 15/03 A3018 RMK A01 T01460033  RH  046%=      5-min Rain = 0
KWE2 052003Z 00026G32KT 15/03 A3018 RMK A01 T01470033  RH  047%=      5-min Rain = 0
KWE2 052004Z 01028KT 15/03 A3018 RMK A01 T01450033  RH  047%=      5-min Rain = 0
KWE2 052005Z 00026KT 14/03 A3019 RMK A01 T01430031  RH  047%=      5-min Rain = 0
KWE2 052006Z 01025KT 14/03 A3019 RMK A01 T01420031  RH  047%=      5-min Rain = 0
KWE2 052007Z 00023KT 15/03 A3018 RMK A01 T01450031  RH  046%=      5-min Rain = 0
KWE2 052008Z 01026KT 15/03 A3019 RMK A01 T01480032  RH  046%=      5-min Rain = 0
KWE2 052009Z 01023KT 15/03 A3019 RMK A01 T01480029  RH  044%=      5-min Rain = 0
KWE2 052010Z 01025G35KT 15/03 A3018 RMK A01 T01460028  RH  045%=      5-min Rain = 0
KWE2 052011Z 01025G30KT 15/03 A3019 RMK A01 T01450027  RH  045%=      5-min Rain = 0
KWE2 052012Z 01024G30KT 14/03 A3019 RMK A01 T01440028  RH  045%=      5-min Rain = 0
KWE2 052013Z 01024G29KT 15/03 A3019 RMK A01 T01450028  RH  045%=      5-min Rain = 0
KWE2 052014Z 02027KT 15/03 A3018 RMK A01 T01460027  RH  045%=      5-min Rain = 0
KWE2 052015Z 01022KT 15/03 A3019 RMK A01 T01480028  RH  044%=      5-min Rain = 0
KWE2 052016Z 01024KT 15/03 A3019 RMK A01 T01500028  RH  044%=      5-min Rain = 0
KWE2 052017Z 02023KT 15/03 A3019 RMK A01 T01490028  RH  044%=      5-min Rain = 0
KWE2 052018Z 01023G30KT 15/03 A3019 RMK A01 T01460026  RH  044%=      5-min Rain = 0
KWE2 052019Z 02027KT 15/03 A3019 RMK A01 T01460026  RH  045%=      5-min Rain = 0
KWE2 052020Z 01030G37KT 15/03 A3019 RMK A01 T01450025  RH  044%=      5-min Rain = 0
KWE2 052021Z 02027KT 14/02 A3019 RMK A01 T01430024  RH  044%=      5-min Rain = 0
KWE2 052022Z 01027KT 14/03 A3019 RMK A01 T01420025  RH  045%=      5-min Rain = 0
KWE2 052023Z 02026KT 14/03 A3019 RMK A01 T01420026  RH  045%=      5-min Rain = 0
KWE2 052024Z 01027KT 14/03 A3019 RMK A01 T01440025  RH  045%=      5-min Rain = 0
KWE2 052025Z 01024KT 15/03 A3019 RMK A01 T01450026  RH  044%=      5-min Rain = 0
KWE2 052026Z 01025KT 15/03 A3019 RMK A01 T01490026  RH  044%=      5-min Rain = 0
KWE2 052027Z 00027KT 15/03 A3019 RMK A01 T01470025  RH  044%=      5-min Rain = 0
KWE2 052028Z 02025KT 15/03 A3019 RMK A01 T01460025  RH  044%=      5-min Rain = 0
KWE2 052029Z 02025KT 15/03 A3019 RMK A01 T01470025  RH  044%=      5-min Rain = 0
KWE2 052030Z 02025G30KT 15/03 A3019 RMK A01 T01460025  RH  044%=      5-min Rain = 0
KWE2 052031Z 01029KT 15/03 A3019 RMK A01 T01460025  RH  044%=      5-min Rain = 0
KWE2 052032Z 01025KT 14/03 A3019 RMK A01 T01440025  RH  044%=      5-min Rain = 0
KWE2 052033Z 01027G32KT 15/03 A3019 RMK A01 T01460027  RH  045%=      5-min Rain = 0
KWE2 052034Z 01027G33KT 15/03 A3019 RMK A01 T01470026  RH  044%=      5-min Rain = 0
KWE2 052035Z 36024KT 15/03 A3019 RMK A01 T01470026  RH  044%=      5-min Rain = 0
KWE2 052036Z 36022KT 15/03 A3019 RMK A01 T01460027  RH  045%=      5-min Rain = 0
KWE2 052037Z 02025KT 15/03 A3019 RMK A01 T01490027  RH  044%=      5-min Rain = 0
KWE2 052038Z 02022G28KT 15/03 A3019 RMK A01 T01490025  RH  043%=      5-min Rain = 0
KWE2 052039Z 01025G30KT 15/03 A3019 RMK A01 T01490026  RH  043%=      5-min Rain = 0
KWE2 052040Z 01025G30KT 15/03 A3019 RMK A01 T01500025  RH  043%=      5-min Rain = 0
KWE2 052041Z 00028G34KT 15/03 A3019 RMK A01 T01470025  RH  044%=      5-min Rain = 0
KWE2 052042Z 00028G34KT 15/03 A3019 RMK A01 T01460026  RH  044%=      5-min Rain = 0
KWE2 052043Z 00025G33KT 15/03 A3019 RMK A01 T01490028  RH  044%=      5-min Rain = 0
KWE2 052044Z 36027KT 15/03 A3019 RMK A01 T01510028  RH  044%=      5-min Rain = 0
KWE2 052045Z 01025G30KT 15/03 A3019 RMK A01 T01490028  RH  044%=      5-min Rain = 0
KWE2 052046Z 01023KT 15/03 A3019 RMK A01 T01480029  RH  044%=      5-min Rain = 0
KWE2 052047Z 02025G32KT 15/03 A3019 RMK A01 T01500028  RH  044%=      5-min Rain = 0
KWE2 052048Z 01030G36KT 15/03 A3019 RMK A01 T01480026  RH  044%=      5-min Rain = 0
KWE2 052049Z 01027KT 14/03 A3019 RMK A01 T01430025  RH  045%=      5-min Rain = 0
KWE2 052050Z 02024G29KT 14/02 A302 RMK A01 T01400024  RH  046%=      5-min Rain = 0
KWE2 052051Z 01023G28KT 14/03 A302 RMK A01 T01380026  RH  047%=      5-min Rain = 0
KWE2 052052Z 02026G33KT 14/03 A302 RMK A01 T01390026  RH  046%=      5-min Rain = 0
KWE2 052053Z 02027KT 14/02 A302 RMK A01 T01390024  RH  046%=      5-min Rain = 0
KWE2 052054Z 01024G29KT 14/03 A302 RMK A01 T01380025  RH  046%=      5-min Rain = 0
KWE2 052055Z 03020G26KT 14/03 A302 RMK A01 T01380025  RH  047%=      5-min Rain = 0
KWE2 052056Z 02023G28KT 14/03 A302 RMK A01 T01390026  RH  046%=      5-min Rain = 0
KWE2 052057Z 01025G31KT 14/03 A302 RMK A01 T01390026  RH  046%=      5-min Rain = 0
KWE2 052058Z 01023KT 14/03 A302 RMK A01 T01410026  RH  046%=      5-min Rain = 0
KWE2 052059Z 01024KT 15/03 A302 RMK A01 T01460028  RH  045%=      5-min Rain = 0
KWE2 052100Z 02023G28KT 15/03 A302 RMK A01 T01460027  RH  045%=      5-min Rain = 0
KWE2 052101Z 02024G30KT 14/03 A302 RMK A01 T01440027  RH  045%=      5-min Rain = 0
KWE2 052102Z 35026G32KT 14/03 A302 RMK A01 T01410026  RH  046%=      5-min Rain = 0
KWE2 052103Z 01021G27KT 14/03 A302 RMK A01 T01380026  RH  047%=      5-min Rain = 0
KWE2 052104Z 01023KT 14/03 A302 RMK A01 T01420029  RH  047%=      5-min Rain = 0
KWE2 052105Z 01022KT 15/03 A3021 RMK A01 T01450028  RH  045%=      5-min Rain = 0
KWE2 052106Z 02020G26KT 14/03 A3021 RMK A01 T01430026  RH  045%=      5-min Rain = 0
KWE2 052107Z 02023G30KT 14/03 A3021 RMK A01 T01410027  RH  046%=      5-min Rain = 0
KWE2 052108Z 01027KT 14/02 A3021 RMK A01 T01370024  RH  046%=      5-min Rain = 0
KWE2 052109Z 00026KT 13/02 A3021 RMK A01 T01340024  RH  047%=      5-min Rain = 0
KWE2 052110Z 01023KT 14/03 A3021 RMK A01 T01350026  RH  048%=      5-min Rain = 0
KWE2 052111Z 02023KT 14/03 A3021 RMK A01 T01390027  RH  047%=      5-min Rain = 0
KWE2 052112Z 02020KT 14/03 A3021 RMK A01 T01400028  RH  047%=      5-min Rain = 0
KWE2 052113Z 02018G25KT 14/03 A3021 RMK A01 T01400029  RH  047%=      5-min Rain = 0
KWE2 052114Z 01022KT 14/03 A3021 RMK A01 T01410029  RH  047%=      5-min Rain = 0
KWE2 052115Z 00028G36KT 14/03 A3021 RMK A01 T01380026  RH  046%=      5-min Rain = 0
KWE2 052116Z 00027G32KT 14/02 A3021 RMK A01 T01350023  RH  047%=      5-min Rain = 0
KWE2 052117Z 01023G29KT 13/02 A3021 RMK A01 T01340024  RH  047%=      5-min Rain = 0
KWE2 052118Z 01024G30KT 14/02 A3021 RMK A01 T01370024  RH  046%=      5-min Rain = 0
KWE2 052119Z 01027KT 14/02 A3021 RMK A01 T01390023  RH  045%=      5-min Rain = 0
KWE2 052120Z 01028KT 14/02 A3021 RMK A01 T01360021  RH  046%=      5-min Rain = 0
KWE2 052121Z 02026G31KT 13/02 A3021 RMK A01 T01320020  RH  046%=      5-min Rain = 0
KWE2 052122Z 02023KT 13/02 A3021 RMK A01 T01300019  RH  047%=      5-min Rain = 0
KWE2 052123Z 01023KT 13/02 A3021 RMK A01 T01300019  RH  047%=      5-min Rain = 0
KWE2 052124Z 01024KT 13/02 A3021 RMK A01 T01330021  RH  047%=      5-min Rain = 0
KWE2 052125Z 00023G28KT 14/02 A3021 RMK A01 T01350022  RH  046%=      5-min Rain = 0
KWE2 052126Z 01026KT 14/03 A3021 RMK A01 T01400026  RH  046%=      5-min Rain = 0
KWE2 052127Z 00024KT 14/03 A3021 RMK A01 T01420025  RH  045%=      5-min Rain = 0
KWE2 052128Z 01024G33KT 14/03 A3021 RMK A01 T01400025  RH  046%=      5-min Rain = 0
KWE2 052129Z 01024G30KT 14/02 A3021 RMK A01 T01390024  RH  046%=      5-min Rain = 0
KWE2 052130Z 00026KT 14/03 A3021 RMK A01 T01370025  RH  047%=      5-min Rain = 0
KWE2 052131Z 01027G32KT 14/03 A3021 RMK A01 T01390026  RH  046%=      5-min Rain = 0
KWE2 052132Z 01026KT 14/02 A3022 RMK A01 T01390024  RH  046%=      5-min Rain = 0
KWE2 052133Z 01024KT 14/02 A3022 RMK A01 T01370024  RH  047%=      5-min Rain = 0
KWE2 052134Z 02025KT 13/02 A3022 RMK A01 T01340023  RH  047%=      5-min Rain = 0
KWE2 052135Z 36023KT 13/02 A3022 RMK A01 T01330023  RH  047%=      5-min Rain = 0
KWE2 052136Z 00025KT 13/02 A3022 RMK A01 T01320023  RH  048%=      5-min Rain = 0
KWE2 052137Z 00025KT 13/02 A3022 RMK A01 T01320023  RH  047%=      5-min Rain = 0
KWE2 052138Z 00027G32KT 13/02 A3022 RMK A01 T01320023  RH  048%=      5-min Rain = 0
KWE2 052139Z 01021G28KT 13/02 A3022 RMK A01 T01320023  RH  048%=      5-min Rain = 0
KWE2 052140Z 01026G31KT 13/02 A3022 RMK A01 T01330023  RH  047%=      5-min Rain = 0
KWE2 052141Z 01024G30KT 13/02 A3022 RMK A01 T01330023  RH  047%=      5-min Rain = 0
KWE2 052142Z 02024KT 13/02 A3022 RMK A01 T01330024  RH  047%=      5-min Rain = 0
KWE2 052143Z 02021KT 13/02 A3023 RMK A01 T01330024  RH  048%=      5-min Rain = 0
KWE2 052144Z 36023KT 13/03 A3023 RMK A01 T01330025  RH  048%=      5-min Rain = 0
KWE2 052145Z 01021G26KT 13/03 A3023 RMK A01 T01330025  RH  048%=      5-min Rain = 0
KWE2 052146Z 01022KT 13/03 A3023 RMK A01 T01320025  RH  048%=      5-min Rain = 0
KWE2 052147Z 01022KT 13/02 A3023 RMK A01 T01320024  RH  048%=      5-min Rain = 0
KWE2 052148Z 00021G26KT 13/02 A3023 RMK A01 T01310024  RH  048%=      5-min Rain = 0
KWE2 052149Z 00023G30KT 13/03 A3023 RMK A01 T01300025  RH  049%=      5-min Rain = 0
KWE2 052150Z 01024G29KT 13/02 A3023 RMK A01 T01300023  RH  048%=      5-min Rain = 0
KWE2 052151Z 01025KT 13/02 A3023 RMK A01 T01300019  RH  047%=      5-min Rain = 0
KWE2 052152Z 01018KT 13/02 A3023 RMK A01 T01280019  RH  047%=      5-min Rain = 0
KWE2 052153Z 01020KT 13/02 A3023 RMK A01 T01280021  RH  048%=      5-min Rain = 0
KWE2 052154Z 01018KT 13/02 A3024 RMK A01 T01280022  RH  048%=      5-min Rain = 0
KWE2 052155Z 01021G26KT 13/02 A3024 RMK A01 T01290024  RH  049%=      5-min Rain = 0
KWE2 052156Z 01020KT 13/02 A3024 RMK A01 T01290023  RH  049%=      5-min Rain = 0
KWE2 052157Z 01017KT 13/02 A3024 RMK A01 T01270024  RH  049%=      5-min Rain = 0
KWE2 052158Z 00025KT 13/02 A3023 RMK A01 T01280024  RH  049%=      5-min Rain = 0
KWE2 052159Z 35025G31KT 13/02 A3023 RMK A01 T01270023  RH  049%=      5-min Rain = 0
KWE2 052200Z 36023KT 13/02 A3023 RMK A01 T01270022  RH  049%=      5-min Rain = 0
KWE2 052201Z 01024KT 13/02 A3023 RMK A01 T01270022  RH  049%=      5-min Rain = 0
KWE2 052202Z 02022G27KT 13/02 A3024 RMK A01 T01280023  RH  049%=      5-min Rain = 0
KWE2 052203Z 01022KT 13/02 A3023 RMK A01 T01290022  RH  048%=      5-min Rain = 0
KWE2 052204Z 01020KT 13/02 A3023 RMK A01 T01290022  RH  048%=      5-min Rain = 0
KWE2 052205Z 02024KT 13/02 A3023 RMK A01 T01310021  RH  047%=      5-min Rain = 0
KWE2 052206Z 02022G27KT 13/02 A3023 RMK A01 T01310021  RH  047%=      5-min Rain = 0
KWE2 052207Z 03022KT 13/02 A3023 RMK A01 T01290020  RH  047%=      5-min Rain = 0
KWE2 052208Z 02020G25KT 13/02 A3023 RMK A01 T01280021  RH  048%=      5-min Rain = 0
KWE2 052209Z 01023G29KT 13/02 A3023 RMK A01 T01280022  RH  048%=      5-min Rain = 0
KWE2 052210Z 01020G26KT 13/02 A3023 RMK A01 T01280023  RH  049%=      5-min Rain = 0
KWE2 052211Z 01020G25KT 13/02 A3023 RMK A01 T01270023  RH  049%=      5-min Rain = 0
KWE2 052212Z 02019KT 13/02 A3023 RMK A01 T01280024  RH  049%=      5-min Rain = 0
KWE2 052213Z 02020KT 13/02 A3023 RMK A01 T01290024  RH  049%=      5-min Rain = 0
KWE2 052214Z 02020KT 13/02 A3024 RMK A01 T01290024  RH  049%=      5-min Rain = 0
KWE2 052215Z 01024G29KT 13/03 A3024 RMK A01 T01280025  RH  049%=      5-min Rain = 0
KWE2 052216Z 01020KT 13/03 A3024 RMK A01 T01270025  RH  050%=      5-min Rain = 0
KWE2 052217Z 01020KT 13/03 A3024 RMK A01 T01260026  RH  051%=      5-min Rain = 0
KWE2 052218Z 01022KT 13/03 A3024 RMK A01 T01250026  RH  051%=      5-min Rain = 0
KWE2 052219Z 01023KT 13/03 A3024 RMK A01 T01260026  RH  051%=      5-min Rain = 0
KWE2 052220Z 01023KT 13/03 A3024 RMK A01 T01260026  RH  051%=      5-min Rain = 0
KWE2 052221Z 01023G28KT 13/03 A3024 RMK A01 T01250025  RH  050%=      5-min Rain = 0
KWE2 052222Z 01023KT 13/02 A3024 RMK A01 T01250023  RH  050%=      5-min Rain = 0
KWE2 052223Z 01025KT 13/02 A3024 RMK A01 T01250021  RH  049%=      5-min Rain = 0
KWE2 052224Z 01023KT 13/02 A3024 RMK A01 T01260021  RH  049%=      5-min Rain = 0
KWE2 052225Z 01024KT 13/02 A3024 RMK A01 T01260021  RH  049%=      5-min Rain = 0
KWE2 052226Z 02024G29KT 13/02 A3024 RMK A01 T01250022  RH  049%=      5-min Rain = 0
KWE2 052227Z 02021G27KT 13/02 A3024 RMK A01 T01250022  RH  050%=      5-min Rain = 0
KWE2 052228Z 01022KT 12/02 A3024 RMK A01 T01240023  RH  050%=      5-min Rain = 0
KWE2 052229Z 02022G27KT 12/02 A3024 RMK A01 T01240024  RH  051%=      5-min Rain = 0
KWE2 052230Z 02020KT 12/02 A3024 RMK A01 T01240024  RH  051%=      5-min Rain = 0
KWE2 052231Z 02023KT 12/02 A3024 RMK A01 T01240024  RH  050%=      5-min Rain = 0
KWE2 052232Z 02023KT 12/03 A3024 RMK A01 T01240025  RH  051%=      5-min Rain = 0
KWE2 052233Z 02019G24KT 12/03 A3025 RMK A01 T01230026  RH  052%=      5-min Rain = 0
KWE2 052234Z 01020KT 12/03 A3025 RMK A01 T01230027  RH  052%=      5-min Rain = 0
KWE2 052235Z 02021G26KT 12/03 A3024 RMK A01 T01230027  RH  052%=      5-min Rain = 0
KWE2 052236Z 01025KT 12/03 A3024 RMK A01 T01240025  RH  051%=      5-min Rain = 0
KWE2 052237Z 01022KT 12/03 A3024 RMK A01 T01240025  RH  051%=      5-min Rain = 0
KWE2 052238Z 02020KT 12/03 A3024 RMK A01 T01230027  RH  052%=      5-min Rain = 0
KWE2 052239Z 01019KT 12/03 A3024 RMK A01 T01230028  RH  052%=      5-min Rain = 0
KWE2 052240Z 01020KT 12/03 A3024 RMK A01 T01230028  RH  052%=      5-min Rain = 0
KWE2 052241Z 02021KT 12/03 A3024 RMK A01 T01230027  RH  052%=      5-min Rain = 0
KWE2 052242Z 01022KT 12/03 A3024 RMK A01 T01240025  RH  051%=      5-min Rain = 0
KWE2 052243Z 01021KT 13/02 A3024 RMK A01 T01260022  RH  049%=      5-min Rain = 0
KWE2 052244Z 01019KT 13/02 A3024 RMK A01 T01290023  RH  049%=      5-min Rain = 0
KWE2 052245Z 02019KT 13/03 A3024 RMK A01 T01310025  RH  049%=      5-min Rain = 0
KWE2 052246Z 02019G26KT 13/03 A3024 RMK A01 T01300026  RH  049%=      5-min Rain = 0
KWE2 052247Z 01025G30KT 13/02 A3024 RMK A01 T01280024  RH  049%=      5-min Rain = 0
KWE2 052248Z 01021KT 13/02 A3024 RMK A01 T01260024  RH  050%=      5-min Rain = 0
KWE2 052249Z 01022KT 13/02 A3024 RMK A01 T01250024  RH  050%=      5-min Rain = 0
KWE2 052250Z 02021KT 13/02 A3024 RMK A01 T01250024  RH  050%=      5-min Rain = 0
KWE2 052251Z 02018KT 13/02 A3024 RMK A01 T01250024  RH  050%=      5-min Rain = 0
KWE2 052252Z 01020G25KT 13/03 A3024 RMK A01 T01250025  RH  050%=      5-min Rain = 0
KWE2 052253Z 02023KT 13/03 A3024 RMK A01 T01250025  RH  051%=      5-min Rain = 0
KWE2 052254Z 02019KT 13/03 A3024 RMK A01 T01250026  RH  051%=      5-min Rain = 0
KWE2 052255Z 02018KT 12/03 A3024 RMK A01 T01240026  RH  051%=      5-min Rain = 0
KWE2 052256Z 02017KT 12/03 A3025 RMK A01 T01240027  RH  052%=      5-min Rain = 0
KWE2 052257Z 01020KT 12/03 A3025 RMK A01 T01240027  RH  051%=      5-min Rain = 0
KWE2 052258Z 02023G28KT 12/02 A3024 RMK A01 T01240024  RH  050%=      5-min Rain = 0
KWE2 052259Z 01022KT 12/02 A3025 RMK A01 T01230023  RH  051%=      5-min Rain = 0
KWE2 052300Z 01020KT 12/03 A3025 RMK A01 T01230025  RH  051%=      5-min Rain = 0
KWE2 052301Z 02021G26KT 12/03 A3025 RMK A01 T01230025  RH  051%=      5-min Rain = 0
KWE2 052302Z 01022G27KT 12/03 A3025 RMK A01 T01230025  RH  051%=      5-min Rain = 0
KWE2 052303Z 02019G24KT 12/03 A3025 RMK A01 T01230026  RH  052%=      5-min Rain = 0
KWE2 052304Z 01017KT 12/03 A3025 RMK A01 T01230027  RH  052%=      5-min Rain = 0
KWE2 052305Z 02014G20KT 12/03 A3025 RMK A01 T01230027  RH  052%=      5-min Rain = 0
KWE2 052306Z 02017KT 12/03 A3025 RMK A01 T01240027  RH  052%=      5-min Rain = 0
KWE2 052307Z 01019G26KT 12/03 A3025 RMK A01 T01240026  RH  051%=      5-min Rain = 0
KWE2 052308Z 02021KT 12/03 A3025 RMK A01 T01240026  RH  051%=      5-min Rain = 0
KWE2 052309Z 01023KT 12/03 A3025 RMK A01 T01230025  RH  051%=      5-min Rain = 0
KWE2 052310Z 02023KT 12/03 A3025 RMK A01 T01220025  RH  051%=      5-min Rain = 0
KWE2 052311Z 02022G28KT 12/02 A3025 RMK A01 T01220024  RH  051%=      5-min Rain = 0
KWE2 052312Z 02022KT 12/02 A3025 RMK A01 T01220023  RH  051%=      5-min Rain = 0
KWE2 052313Z 02020G25KT 12/02 A3025 RMK A01 T01220024  RH  051%=      5-min Rain = 0
KWE2 052314Z 01019G24KT 12/02 A3025 RMK A01 T01210024  RH  051%=      5-min Rain = 0
KWE2 052315Z 02021G27KT 12/02 A3025 RMK A01 T01210024  RH  051%=      5-min Rain = 0
KWE2 052316Z 01024KT 12/02 A3025 RMK A01 T01210023  RH  051%=      5-min Rain = 0
KWE2 052317Z 01023KT 12/02 A3025 RMK A01 T01220023  RH  051%=      5-min Rain = 0
KWE2 052318Z 02022KT 12/02 A3025 RMK A01 T01230023  RH  050%=      5-min Rain = 0
KWE2 052319Z 02024KT 12/02 A3025 RMK A01 T01230022  RH  050%=      5-min Rain = 0
KWE2 052320Z 02020G25KT 12/02 A3025 RMK A01 T01230022  RH  050%=      5-min Rain = 0
KWE2 052321Z 01021KT 12/02 A3025 RMK A01 T01220023  RH  051%=      5-min Rain = 0
KWE2 052322Z 01022KT 12/02 A3025 RMK A01 T01220024  RH  051%=      5-min Rain = 0
KWE2 052323Z 01020KT 12/02 A3025 RMK A01 T01220024  RH  051%=      5-min Rain = 0
KWE2 052324Z 01021KT 12/03 A3025 RMK A01 T01220025  RH  051%=      5-min Rain = 0
KWE2 052325Z 02018G23KT 12/03 A3025 RMK A01 T01210025  RH  052%=      5-min Rain = 0
KWE2 052326Z 01020KT 12/03 A3025 RMK A01 T01210025  RH  052%=      5-min Rain = 0
KWE2 052327Z 01022KT 12/02 A3025 RMK A01 T01210024  RH  052%=      5-min Rain = 0
KWE2 052328Z 01022KT 12/02 A3025 RMK A01 T01210024  RH  051%=      5-min Rain = 0
KWE2 052329Z 01021G26KT 12/03 A3025 RMK A01 T01220025  RH  051%=      5-min Rain = 0
KWE2 052330Z 02022KT 12/03 A3025 RMK A01 T01240025  RH  051%=      5-min Rain = 0
KWE2 052331Z 01020KT 13/02 A3025 RMK A01 T01250024  RH  050%=      5-min Rain = 0
KWE2 052332Z 01024KT 13/02 A3025 RMK A01 T01250024  RH  050%=      5-min Rain = 0
KWE2 052333Z 01021KT 13/02 A3025 RMK A01 T01250023  RH  050%=      5-min Rain = 0
KWE2 052334Z 02018G23KT 13/03 A3025 RMK A01 T01270025  RH  050%=      5-min Rain = 0
KWE2 052335Z 02017KT 13/03 A3025 RMK A01 T01280026  RH  050%=      5-min Rain = 0
KWE2 052336Z 01021G26KT 13/02 A3025 RMK A01 T01290024  RH  049%=      5-min Rain = 0
KWE2 052337Z 01022KT 13/02 A3025 RMK A01 T01280020  RH  048%=      5-min Rain = 0
KWE2 052338Z 01022KT 13/02 A3025 RMK A01 T01280020  RH  048%=      5-min Rain = 0
KWE2 052339Z 02021KT 13/02 A3025 RMK A01 T01270019  RH  048%=      5-min Rain = 0
KWE2 052340Z 02020KT 13/02 A3025 RMK A01 T01270020  RH  048%=      5-min Rain = 0
KWE2 052341Z 02021KT 13/02 A3025 RMK A01 T01270022  RH  049%=      5-min Rain = 0
KWE2 052342Z 02019KT 13/02 A3026 RMK A01 T01260022  RH  049%=      5-min Rain = 0
KWE2 052343Z 03018G25KT 13/02 A3026 RMK A01 T01260023  RH  049%=      5-min Rain = 0
KWE2 052344Z 02018KT 13/02 A3026 RMK A01 T01260023  RH  049%=      5-min Rain = 0
KWE2 052345Z 02016KT 13/02 A3026 RMK A01 T01270024  RH  049%=      5-min Rain = 0
KWE2 052346Z 02017KT 13/03 A3026 RMK A01 T01280025  RH  049%=      5-min Rain = 0
KWE2 052347Z 02019KT 13/02 A3026 RMK A01 T01280024  RH  049%=      5-min Rain = 0
KWE2 052348Z 02022G29KT 13/02 A3026 RMK A01 T01280022  RH  048%=      5-min Rain = 0
KWE2 052349Z 03020KT 13/02 A3026 RMK A01 T01270021  RH  049%=      5-min Rain = 0
KWE2 052350Z 03022KT 13/02 A3026 RMK A01 T01270022  RH  049%=      5-min Rain = 0
KWE2 052351Z 03018KT 13/02 A3026 RMK A01 T01270023  RH  049%=      5-min Rain = 0
KWE2 052352Z 03020KT 13/02 A3026 RMK A01 T01270023  RH  049%=      5-min Rain = 0
KWE2 052353Z 02020KT 13/02 A3026 RMK A01 T01270023  RH  049%=      5-min Rain = 0
KWE2 052354Z 03018KT 13/02 A3026 RMK A01 T01270022  RH  049%=      5-min Rain = 0
KWE2 052355Z 03019G24KT 13/02 A3026 RMK A01 T01270022  RH  049%=      5-min Rain = 0
KWE2 052356Z 03018KT 13/02 A3026 RMK A01 T01270022  RH  049%=      5-min Rain = 0
KWE2 052357Z 02017KT 13/02 A3026 RMK A01 T01270022  RH  049%=      5-min Rain = 0
KWE2 052358Z 02018KT 13/02 A3026 RMK A01 T01270023  RH  049%=      5-min Rain = 0
KWE2 052359Z 02018G23KT 13/02 A3026 RMK A01 T01270022  RH  049%=      5-min Rain = 0
KWE2 060000Z 02018KT 13/02 A3026 RMK A01 T01270022  RH  049%=      5-min Rain = 0
KWE2 060001Z 02020KT 13/02 A3026 RMK A01 T01280023  RH  049%=      5-min Rain = 0
KWE2 060002Z 02019KT 13/02 A3026 RMK A01 T01280023  RH  049%=      5-min Rain = 0
KWE2 060003Z 02019KT 13/02 A3026 RMK A01 T01270023  RH  049%=      5-min Rain = 0
KWE2 060004Z 02022KT 13/02 A3026 RMK A01 T01270023  RH  049%=      5-min Rain = 0
KWE2 060005Z 02021KT 13/02 A3026 RMK A01 T01270023  RH  049%=      5-min Rain = 0
KWE2 060006Z 02018KT 13/02 A3026 RMK A01 T01270023  RH  049%=      5-min Rain = 0
KWE2 060007Z 02018KT 13/02 A3026 RMK A01 T01270023  RH  049%=      5-min Rain = 0
KWE2 060008Z 02018KT 13/02 A3026 RMK A01 T01270024  RH  049%=      5-min Rain = 0
KWE2 060009Z 02018KT 13/02 A3026 RMK A01 T01270023  RH  049%=      5-min Rain = 0
KWE2 060010Z 02015KT 13/02 A3026 RMK A01 T01270024  RH  050%=      5-min Rain = 0
KWE2 060011Z 02017KT 13/03 A3026 RMK A01 T01270025  RH  050%=      5-min Rain = 0
KWE2 060012Z 02019KT 13/03 A3026 RMK A01 T01260025  RH  050%=      5-min Rain = 0
KWE2 060013Z 03016KT 13/03 A3026 RMK A01 T01260025  RH  050%=      5-min Rain = 0
KWE2 060014Z 03018KT 13/03 A3026 RMK A01 T01260025  RH  050%=      5-min Rain = 0
KWE2 060015Z 03018KT 13/02 A3026 RMK A01 T01250024  RH  050%=      5-min Rain = 0
KWE2 060016Z 03017KT 12/02 A3026 RMK A01 T01240024  RH  050%=      5-min Rain = 0
KWE2 060017Z 02018KT 12/02 A3026 RMK A01 T01240024  RH  050%=      5-min Rain = 0
KWE2 060018Z 03017KT 12/02 A3026 RMK A01 T01240024  RH  051%=      5-min Rain = 0
KWE2 060019Z 03016KT 12/02 A3026 RMK A01 T01230024  RH  051%=      5-min Rain = 0
KWE2 060020Z 03016KT 12/02 A3026 RMK A01 T01230024  RH  051%=      5-min Rain = 0
KWE2 060021Z 03016KT 12/02 A3026 RMK A01 T01230024  RH  051%=      5-min Rain = 0
KWE2 060022Z 03016KT 12/03 A3026 RMK A01 T01230025  RH  051%=      5-min Rain = 0
KWE2 060023Z 03016G21KT 12/03 A3026 RMK A01 T01230025  RH  051%=      5-min Rain = 0
KWE2 060024Z 04017KT 12/02 A3026 RMK A01 T01230024  RH  051%=      5-min Rain = 0
KWE2 060025Z 03017KT 12/02 A3026 RMK A01 T01230024  RH  051%=      5-min Rain = 0
KWE2 060026Z 03016KT 12/03 A3027 RMK A01 T01220025  RH  051%=      5-min Rain = 0
KWE2 060027Z 03018KT 12/03 A3027 RMK A01 T01220025  RH  051%=      5-min Rain = 0
KWE2 060028Z 03017KT 12/03 A3027 RMK A01 T01210025  RH  052%=      5-min Rain = 0
KWE2 060029Z 02015KT 12/03 A3027 RMK A01 T01210026  RH  052%=      5-min Rain = 0
KWE2 060030Z 03017KT 12/03 A3027 RMK A01 T01210026  RH  052%=      5-min Rain = 0
KWE2 060031Z 02017KT 12/03 A3027 RMK A01 T01200025  RH  052%=      5-min Rain = 0
KWE2 060032Z 03015KT 12/03 A3027 RMK A01 T01210025  RH  052%=      5-min Rain = 0
KWE2 060033Z 03013KT 12/03 A3027 RMK A01 T01200025  RH  052%=      5-min Rain = 0
KWE2 060034Z 03016KT 12/03 A3027 RMK A01 T01190025  RH  053%=      5-min Rain = 0
KWE2 060035Z 03015KT 12/03 A3027 RMK A01 T01190026  RH  053%=      5-min Rain = 0
KWE2 060036Z 03015KT 12/03 A3027 RMK A01 T01190026  RH  053%=      5-min Rain = 0
KWE2 060037Z 03013KT 12/03 A3027 RMK A01 T01180026  RH  053%=      5-min Rain = 0
KWE2 060038Z 03015KT 12/03 A3027 RMK A01 T01170026  RH  053%=      5-min Rain = 0
KWE2 060039Z 03015KT 12/03 A3027 RMK A01 T01170026  RH  054%=      5-min Rain = 0
KWE2 060040Z 02014KT 12/03 A3027 RMK A01 T01160026  RH  054%=      5-min Rain = 0
KWE2 060041Z 03013KT 12/03 A3027 RMK A01 T01160025  RH  054%=      5-min Rain = 0
KWE2 060042Z 02013KT 12/03 A3027 RMK A01 T01150025  RH  054%=      5-min Rain = 0
KWE2 060043Z 02015KT 12/03 A3027 RMK A01 T01150025  RH  054%=      5-min Rain = 0
KWE2 060044Z 02016KT 11/03 A3027 RMK A01 T01140025  RH  054%=      5-min Rain = 0
KWE2 060045Z 02016KT 11/02 A3027 RMK A01 T01140024  RH  054%=      5-min Rain = 0
KWE2 060046Z 02018KT 11/02 A3027 RMK A01 T01140024  RH  054%=      5-min Rain = 0
KWE2 060047Z 02015KT 12/02 A3027 RMK A01 T01150023  RH  053%=      5-min Rain = 0
KWE2 060048Z 02015KT 12/02 A3027 RMK A01 T01150023  RH  053%=      5-min Rain = 0
KWE2 060049Z 02013KT 12/02 A3027 RMK A01 T01150024  RH  054%=      5-min Rain = 0
KWE2 060050Z 02013KT 12/02 A3027 RMK A01 T01150024  RH  054%=      5-min Rain = 0
KWE2 060051Z 03015KT 12/02 A3027 RMK A01 T01150024  RH  054%=      5-min Rain = 0
KWE2 060052Z 03014KT 12/02 A3027 RMK A01 T01150024  RH  054%=      5-min Rain = 0
KWE2 060053Z 03013KT 12/03 A3028 RMK A01 T01160025  RH  054%=      5-min Rain = 0
KWE2 060054Z 02014KT 12/02 A3028 RMK A01 T01160024  RH  054%=      5-min Rain = 0
KWE2 060055Z 02015KT 12/02 A3028 RMK A01 T01150024  RH  054%=      5-min Rain = 0
KWE2 060056Z 02014KT 12/02 A3028 RMK A01 T01150024  RH  054%=      5-min Rain = 0
KWE2 060057Z 02013KT 12/02 A3028 RMK A01 T01160024  RH  053%=      5-min Rain = 0
KWE2 060058Z 02013KT 12/02 A3028 RMK A01 T01150024  RH  053%=      5-min Rain = 0
KWE2 060059Z 02014KT 12/02 A3028 RMK A01 T01150024  RH  054%=      5-min Rain = 0
KWE2 060100Z 02012KT 12/03 A3028 RMK A01 T01160025  RH  054%=      5-min Rain = 0
KWE2 060101Z 02014KT 12/02 A3028 RMK A01 T01160024  RH  053%=      5-min Rain = 0
KWE2 060102Z 02012KT 12/03 A3028 RMK A01 T01160025  RH  053%=      5-min Rain = 0
KWE2 060103Z 02011KT 12/03 A3028 RMK A01 T01160025  RH  053%=      5-min Rain = 0
KWE2 060104Z 02012KT 12/03 A3028 RMK A01 T01150025  RH  054%=      5-min Rain = 0
KWE2 060105Z 01012KT 12/03 A3028 RMK A01 T01150025  RH  054%=      5-min Rain = 0
KWE2 060106Z 01013KT 12/03 A3028 RMK A01 T01150025  RH  054%=      5-min Rain = 0
KWE2 060107Z 02011KT 11/03 A3028 RMK A01 T01140025  RH  054%=      5-min Rain = 0
KWE2 060108Z 01010KT 11/03 A3028 RMK A01 T01140025  RH  054%=      5-min Rain = 0
KWE2 060109Z 01010KT 11/02 A3028 RMK A01 T01120024  RH  055%=      5-min Rain = 0
KWE2 060110Z 01009KT 11/02 A3028 RMK A01 T01110024  RH  055%=      5-min Rain = 0
KWE2 060111Z 01009KT 11/02 A3028 RMK A01 T01090024  RH  056%=      5-min Rain = 0
KWE2 060112Z 02010KT 11/02 A3028 RMK A01 T01080024  RH  056%=      5-min Rain = 0
KWE2 060113Z 01011KT 11/03 A3028 RMK A01 T01080025  RH  056%=      5-min Rain = 0
KWE2 060114Z 02010KT 11/03 A3028 RMK A01 T01080025  RH  056%=      5-min Rain = 0
KWE2 060115Z 02009KT 11/03 A3028 RMK A01 T01080025  RH  056%=      5-min Rain = 0
KWE2 060116Z 02010KT 11/03 A3028 RMK A01 T01080025  RH  057%=      5-min Rain = 0
KWE2 060117Z 02009KT 11/03 A3028 RMK A01 T01070025  RH  057%=      5-min Rain = 0
KWE2 060118Z 02008KT 11/03 A3028 RMK A01 T01060025  RH  057%=      5-min Rain = 0
KWE2 060119Z 02008KT 11/03 A3029 RMK A01 T01060025  RH  057%=      5-min Rain = 0
KWE2 060120Z 02008KT 10/02 A3029 RMK A01 T01040024  RH  058%=      5-min Rain = 0
KWE2 060121Z 02007KT 10/02 A3029 RMK A01 T01040024  RH  058%=      5-min Rain = 0
KWE2 060122Z 02008KT 10/02 A3029 RMK A01 T01020024  RH  058%=      5-min Rain = 0
KWE2 060123Z 02007KT 10/02 A3029 RMK A01 T01020024  RH  059%=      5-min Rain = 0
KWE2 060124Z 02007KT 10/02 A3029 RMK A01 T01020024  RH  059%=      5-min Rain = 0
KWE2 060125Z 03007KT 10/02 A3029 RMK A01 T01010024  RH  059%=      5-min Rain = 0
KWE2 060126Z 02007KT 10/02 A3029 RMK A01 T01000024  RH  059%=      5-min Rain = 0
KWE2 060127Z 02007KT 10/02 A3029 RMK A01 T01000023  RH  059%=      5-min Rain = 0
KWE2 060128Z 02008KT 10/02 A3029 RMK A01 T00980023  RH  059%=      5-min Rain = 0
KWE2 060129Z 02007KT 10/02 A3029 RMK A01 T00980023  RH  060%=      5-min Rain = 0
KWE2 060130Z 03005KT 10/02 A3028 RMK A01 T00980024  RH  060%=      5-min Rain = 0
KWE2 060131Z 03007KT 10/02 A3028 RMK A01 T00980023  RH  060%=      5-min Rain = 0
KWE2 060132Z 03006KT 10/02 A3028 RMK A01 T00980024  RH  060%=      5-min Rain = 0
KWE2 060133Z 03006KT 10/02 A3028 RMK A01 T00980023  RH  060%=      5-min Rain = 0
KWE2 060134Z 03007KT 10/02 A3028 RMK A01 T00970023  RH  060%=      5-min Rain = 0
KWE2 060135Z 03006KT 10/02 A3028 RMK A01 T00970024  RH  060%=      5-min Rain = 0
KWE2 060136Z 04007KT 10/02 A3028 RMK A01 T00970024  RH  060%=      5-min Rain = 0
KWE2 060137Z 04007KT 10/02 A3028 RMK A01 T00970024  RH  060%=      5-min Rain = 0
KWE2 060138Z 04007KT 10/02 A3028 RMK A01 T00970024  RH  060%=      5-min Rain = 0
KWE2 060139Z 03007KT 10/02 A3029 RMK A01 T00980024  RH  060%=      5-min Rain = 0
KWE2 060140Z 03007KT 10/02 A3029 RMK A01 T00980023  RH  060%=      5-min Rain = 0
KWE2 060141Z 03007KT 10/02 A3029 RMK A01 T00980023  RH  060%=      5-min Rain = 0
KWE2 060142Z 03007KT 10/02 A3029 RMK A01 T00970022  RH  060%=      5-min Rain = 0
KWE2 060143Z 03007KT 10/02 A3029 RMK A01 T00960022  RH  060%=      5-min Rain = 0
KWE2 060144Z 03007KT 10/02 A3029 RMK A01 T00950022  RH  060%=      5-min Rain = 0
KWE2 060145Z 03007KT 10/02 A3029 RMK A01 T00950022  RH  060%=      5-min Rain = 0
KWE2 060146Z 03007KT 10/02 A3029 RMK A01 T00950022  RH  060%=      5-min Rain = 0
KWE2 060147Z 03007KT 09/02 A3029 RMK A01 T00940021  RH  060%=      5-min Rain = 0
KWE2 060148Z 03007KT 09/02 A3029 RMK A01 T00940021  RH  060%=      5-min Rain = 0
KWE2 060149Z 03008KT 09/02 A3029 RMK A01 T00930021  RH  061%=      5-min Rain = 0
KWE2 060150Z 03008KT 09/02 A3029 RMK A01 T00920021  RH  061%=      5-min Rain = 0
KWE2 060151Z 03008KT 09/02 A3029 RMK A01 T00920021  RH  061%=      5-min Rain = 0
KWE2 060152Z 03007KT 09/02 A3029 RMK A01 T00920021  RH  061%=      5-min Rain = 0
KWE2 060153Z 03007KT 09/02 A303 RMK A01 T00920021  RH  061%=      5-min Rain = 0
KWE2 060154Z 03007KT 09/02 A303 RMK A01 T00910020  RH  061%=      5-min Rain = 0
KWE2 060155Z 03007KT 09/02 A303 RMK A01 T00890020  RH  062%=      5-min Rain = 0
KWE2 060156Z 03007KT 09/02 A303 RMK A01 T00890020  RH  062%=      5-min Rain = 0
KWE2 060157Z 03007KT 09/02 A303 RMK A01 T00890020  RH  062%=      5-min Rain = 0
KWE2 060158Z 03007KT 09/02 A303 RMK A01 T00890020  RH  062%=      5-min Rain = 0
KWE2 060159Z 03006KT 09/02 A303 RMK A01 T00880020  RH  062%=      5-min Rain = 0
KWE2 060200Z 03006KT 09/02 A303 RMK A01 T00880019  RH  062%=      5-min Rain = 0
KWE2 060201Z 03006KT 09/02 A303 RMK A01 T00860019  RH  063%=      5-min Rain = 0
KWE2 060202Z 03006KT 09/02 A303 RMK A01 T00860019  RH  063%=      5-min Rain = 0
KWE2 060203Z 03006KT 09/02 A303 RMK A01 T00850019  RH  063%=      5-min Rain = 0
KWE2 060204Z 03006KT 08/02 A303 RMK A01 T00840019  RH  064%=      5-min Rain = 0
KWE2 060205Z 03005KT 08/02 A303 RMK A01 T00830019  RH  064%=      5-min Rain = 0
KWE2 060206Z 03006KT 08/02 A303 RMK A01 T00820018  RH  064%=      5-min Rain = 0
KWE2 060207Z 03006KT 08/02 A303 RMK A01 T00810018  RH  064%=      5-min Rain = 0
KWE2 060208Z 03005KT 08/02 A303 RMK A01 T00810019  RH  065%=      5-min Rain = 0
KWE2 060209Z 03006KT 08/02 A303 RMK A01 T00820019  RH  064%=      5-min Rain = 0
KWE2 060210Z 03005KT 08/02 A303 RMK A01 T00820018  RH  064%=      5-min Rain = 0
KWE2 060211Z 04005KT 08/02 A303 RMK A01 T00820019  RH  064%=      5-min Rain = 0
KWE2 060212Z 04005KT 08/02 A303 RMK A01 T00820019  RH  064%=      5-min Rain = 0
KWE2 060213Z 03005KT 08/02 A303 RMK A01 T00830019  RH  064%=      5-min Rain = 0
KWE2 060214Z 04005KT 08/02 A303 RMK A01 T00820018  RH  064%=      5-min Rain = 0
KWE2 060215Z 03005KT 08/02 A303 RMK A01 T00820018  RH  064%=      5-min Rain = 0
KWE2 060216Z 03005KT 08/02 A303 RMK A01 T00820018  RH  064%=      5-min Rain = 0
KWE2 060217Z 04005KT 08/02 A303 RMK A01 T00820018  RH  064%=      5-min Rain = 0
KWE2 060218Z 04005KT 08/02 A3031 RMK A01 T00810018  RH  064%=      5-min Rain = 0
KWE2 060219Z 03005KT 08/02 A3031 RMK A01 T00810018  RH  064%=      5-min Rain = 0
KWE2 060220Z 03005KT 08/02 A3031 RMK A01 T00810018  RH  064%=      5-min Rain = 0
KWE2 060221Z 03005KT 08/02 A3031 RMK A01 T00800018  RH  065%=      5-min Rain = 0
KWE2 060222Z 04005KT 08/02 A3031 RMK A01 T00790018  RH  065%=      5-min Rain = 0
KWE2 060223Z 03005KT 08/02 A3031 RMK A01 T00790017  RH  065%=      5-min Rain = 0
KWE2 060224Z 04005KT 08/02 A3031 RMK A01 T00790018  RH  065%=      5-min Rain = 0
KWE2 060225Z 03005KT 08/02 A3031 RMK A01 T00790018  RH  065%=      5-min Rain = 0
KWE2 060226Z 03004KT 08/02 A3031 RMK A01 T00780016  RH  065%=      5-min Rain = 0
KWE2 060227Z 03005KT 08/02 A3031 RMK A01 T00760016  RH  066%=      5-min Rain = 0
KWE2 060228Z 03005KT 07/02 A3031 RMK A01 T00740015  RH  066%=      5-min Rain = 0
KWE2 060229Z 03005KT 07/01 A3031 RMK A01 T00720014  RH  067%=      5-min Rain = 0
KWE2 060230Z 03005KT 07/02 A3031 RMK A01 T00710015  RH  068%=      5-min Rain = 0
KWE2 060231Z 03005KT 07/02 A3031 RMK A01 T00700015  RH  068%=      5-min Rain = 0
KWE2 060232Z 03005KT 07/02 A3031 RMK A01 T00690015  RH  069%=      5-min Rain = 0
KWE2 060233Z 03005KT 07/02 A3031 RMK A01 T00680015  RH  069%=      5-min Rain = 0
KWE2 060234Z 03005KT 07/02 A3031 RMK A01 T00680015  RH  069%=      5-min Rain = 0
KWE2 060235Z 03005KT 07/02 A3031 RMK A01 T00690015  RH  068%=      5-min Rain = 0
KWE2 060236Z 03005KT 07/01 A3031 RMK A01 T00680014  RH  069%=      5-min Rain = 0
KWE2 060237Z 03005KT 07/02 A3031 RMK A01 T00680015  RH  069%=      5-min Rain = 0
KWE2 060238Z 03005KT 07/01 A3031 RMK A01 T00680014  RH  068%=      5-min Rain = 0
KWE2 060239Z 03005KT 07/01 A3031 RMK A01 T00670014  RH  069%=      5-min Rain = 0
KWE2 060240Z 03005KT 07/02 A3031 RMK A01 T00670015  RH  069%=      5-min Rain = 0
KWE2 060241Z 03005KT 07/01 A3031 RMK A01 T00670014  RH  069%=      5-min Rain = 0
KWE2 060242Z 03004KT 07/02 A3031 RMK A01 T00680015  RH  069%=      5-min Rain = 0
KWE2 060243Z 04004KT 07/02 A3031 RMK A01 T00690016  RH  069%=      5-min Rain = 0
KWE2 060244Z 04004KT 07/02 A3032 RMK A01 T00710017  RH  068%=      5-min Rain = 0
KWE2 060245Z 04004KT 07/02 A3032 RMK A01 T00730017  RH  068%=      5-min Rain = 0
KWE2 060246Z 04004KT 07/02 A3032 RMK A01 T00730016  RH  067%=      5-min Rain = 0
KWE2 060247Z 04004KT 07/02 A3032 RMK A01 T00730017  RH  067%=      5-min Rain = 0
KWE2 060248Z 04004KT 07/02 A3032 RMK A01 T00740017  RH  067%=      5-min Rain = 0
KWE2 060249Z 04004KT 07/02 A3032 RMK A01 T00740017  RH  067%=      5-min Rain = 0
KWE2 060250Z 04004KT 08/02 A3032 RMK A01 T00750017  RH  067%=      5-min Rain = 0
KWE2 060251Z 04004KT 08/02 A3032 RMK A01 T00750017  RH  067%=      5-min Rain = 0
KWE2 060252Z 04004KT 08/02 A3032 RMK A01 T00750017  RH  067%=      5-min Rain = 0
KWE2 060253Z 04004KT 08/02 A3032 RMK A01 T00750017  RH  067%=      5-min Rain = 0
KWE2 060254Z 03003KT 07/02 A3032 RMK A01 T00740015  RH  066%=      5-min Rain = 0
KWE2 060255Z 03004KT 07/01 A3032 RMK A01 T00710011  RH  066%=      5-min Rain = 0
KWE2 060256Z 02004KT 07/01 A3032 RMK A01 T00650008  RH  067%=      5-min Rain = 0
KWE2 060257Z 02004KT 06/01 A3032 RMK A01 T00610010  RH  070%=      5-min Rain = 0
KWE2 060258Z 02004KT 06/01 A3032 RMK A01 T00600011  RH  071%=      5-min Rain = 0
KWE2 060259Z 02004KT 06/01 A3032 RMK A01 T00580008  RH  071%=      5-min Rain = 0
KWE2 060300Z 02004KT 06/01 A3032 RMK A01 T00550007  RH  071%=      5-min Rain = 0
KWE2 060301Z 02004KT 05/01 A3032 RMK A01 T00520005  RH  072%=      5-min Rain = 0
KWE2 060302Z 02004KT 05/00 A3032 RMK A01 T00490003  RH  072%=      5-min Rain = 0
KWE2 060303Z 02004KT 05/00 A3032 RMK A01 T00460004  RH  074%=      5-min Rain = 0
KWE2 060304Z 02004KT 05/01 A3032 RMK A01 T00470006  RH  075%=      5-min Rain = 0
KWE2 060305Z 01004KT 05/01 A3032 RMK A01 T00470006  RH  075%=      5-min Rain = 0
KWE2 060306Z 01004KT 05/01 A3032 RMK A01 T00460006  RH  075%=      5-min Rain = 0
KWE2 060307Z 00004KT 05/01 A3032 RMK A01 T00450005  RH  075%=      5-min Rain = 0
KWE2 060308Z 01004KT 04/00 A3032 RMK A01 T00430002  RH  075%=      5-min Rain = 0
KWE2 060309Z 01004KT 04/00 A3032 RMK A01 T00410000  RH  075%=      5-min Rain = 0
KWE2 060310Z 01003KT 04/00 A3032 RMK A01 T00400000  RH  075%=      5-min Rain = 0
KWE2 060311Z 02003KT 04/00 A3032 RMK A01 T00390002  RH  077%=      5-min Rain = 0
KWE2 060312Z 03003KT 04/00 A3032 RMK A01 T00390003  RH  078%=      5-min Rain = 0
KWE2 060313Z 03003KT 04/00 A3032 RMK A01 T00390004  RH  078%=      5-min Rain = 0
KWE2 060314Z 03003KT 04/00 A3032 RMK A01 T00400004  RH  077%=      5-min Rain = 0
KWE2 060315Z 03003KT 04/00 A3032 RMK A01 T00400004  RH  077%=      5-min Rain = 0
KWE2 060316Z 03003KT 04/00 A3032 RMK A01 T00400003  RH  077%=      5-min Rain = 0
KWE2 060317Z 02003KT 04/00 A3033 RMK A01 T00390001  RH  076%=      5-min Rain = 0
KWE2 060318Z 01003KT 04/00 A3033 RMK A01 T00380001  RH  077%=      5-min Rain = 0
KWE2 060319Z 00003KT 04/00 A3033 RMK A01 T00370001  RH  078%=      5-min Rain = 0
KWE2 060320Z 35003KT 04/00 A3033 RMK A01 T00360001  RH  078%=      5-min Rain = 0
KWE2 060321Z 35004KT 04/00 A3033 RMK A01 T00360001  RH  078%=      5-min Rain = 0
KWE2 060322Z 34004KT 04/00 A3033 RMK A01 T00370002  RH  078%=      5-min Rain = 0
KWE2 060323Z 34004KT 04/00 A3033 RMK A01 T00380002  RH  077%=      5-min Rain = 0
KWE2 060324Z 34004KT 04/00 A3033 RMK A01 T00390001  RH  076%=      5-min Rain = 0
KWE2 060325Z 34004KT 04/00 A3033 RMK A01 T00390001  RH  076%=      5-min Rain = 0
KWE2 060326Z 34004KT 04/M00 A3033 RMK A01 T00381001  RH  076%=      5-min Rain = 0
KWE2 060327Z 34005KT 04/M00 A3033 RMK A01 T00361004  RH  075%=      5-min Rain = 0
KWE2 060328Z 34005KT 03/M01 A3033 RMK A01 T00331006  RH  076%=      5-min Rain = 0
KWE2 060329Z 34005KT 03/M01 A3033 RMK A01 T00301007  RH  077%=      5-min Rain = 0
KWE2 060330Z 34005KT 03/M01 A3033 RMK A01 T00271007  RH  078%=      5-min Rain = 0
KWE2 060331Z 34005KT 03/M01 A3033 RMK A01 T00261007  RH  079%=      5-min Rain = 0
KWE2 060332Z 35005KT 03/M01 A3033 RMK A01 T00251006  RH  080%=      5-min Rain = 0
KWE2 060333Z 35005KT 03/M01 A3033 RMK A01 T00251006  RH  080%=      5-min Rain = 0
KWE2 060334Z 35005KT 03/M01 A3033 RMK A01 T00261005  RH  080%=      5-min Rain = 0
KWE2 060335Z 35005KT 03/M01 A3033 RMK A01 T00271005  RH  080%=      5-min Rain = 0
KWE2 060336Z 35004KT 03/M00 A3033 RMK A01 T00281004  RH  079%=      5-min Rain = 0
KWE2 060337Z 35005KT 03/M00 A3033 RMK A01 T00291004  RH  079%=      5-min Rain = 0
KWE2 060338Z 00005KT 03/M00 A3033 RMK A01 T00291004  RH  079%=      5-min Rain = 0
KWE2 060339Z 00004KT 03/M00 A3033 RMK A01 T00291003  RH  079%=      5-min Rain = 0
KWE2 060340Z 00004KT 03/M00 A3033 RMK A01 T00291003  RH  079%=      5-min Rain = 0
KWE2 060341Z 00005KT 03/M00 A3033 RMK A01 T00291003  RH  079%=      5-min Rain = 0
KWE2 060342Z 00004KT 03/M00 A3033 RMK A01 T00301003  RH  079%=      5-min Rain = 0
KWE2 060343Z 01004KT 03/M00 A3033 RMK A01 T00301002  RH  079%=      5-min Rain = 0
KWE2 060344Z 01004KT 03/M00 A3033 RMK A01 T00311002  RH  079%=      5-min Rain = 0
KWE2 060345Z 01004KT 03/M00 A3033 RMK A01 T00311001  RH  079%=      5-min Rain = 0
KWE2 060346Z 02004KT 03/00 A3033 RMK A01 T00320000  RH  080%=      5-min Rain = 0
KWE2 060347Z 02004KT 03/00 A3033 RMK A01 T00330000  RH  079%=      5-min Rain = 0
KWE2 060348Z 02004KT 03/00 A3033 RMK A01 T00340001  RH  079%=      5-min Rain = 0
KWE2 060349Z 03004KT 03/00 A3033 RMK A01 T00340001  RH  079%=      5-min Rain = 0
KWE2 060350Z 02004KT 04/00 A3033 RMK A01 T00350002  RH  079%=      5-min Rain = 0
KWE2 060351Z 02004KT 04/00 A3033 RMK A01 T00350001  RH  078%=      5-min Rain = 0
KWE2 060352Z 02004KT 04/00 A3033 RMK A01 T00350000  RH  078%=      5-min Rain = 0
KWE2 060353Z 02004KT 04/M00 A3033 RMK A01 T00351001  RH  077%=      5-min Rain = 0
KWE2 060354Z 02004KT 03/M00 A3033 RMK A01 T00341002  RH  077%=      5-min Rain = 0
KWE2 060355Z 02004KT 03/M00 A3033 RMK A01 T00341003  RH  077%=      5-min Rain = 0
KWE2 060356Z 02004KT 03/M00 A3033 RMK A01 T00331003  RH  078%=      5-min Rain = 0
KWE2 060357Z 01004KT 03/M00 A3033 RMK A01 T00311003  RH  078%=      5-min Rain = 0
KWE2 060358Z 01004KT 03/00 A3033 RMK A01 T00310000  RH  080%=      5-min Rain = 0
KWE2 060359Z 01004KT 03/00 A3033 RMK A01 T00330003  RH  081%=      5-min Rain = 0
KWE2 060400Z 01004KT 04/01 A3033 RMK A01 T00350005  RH  080%=      5-min Rain = 0
KWE2 060401Z 01004KT 04/00 A3033 RMK A01 T00370004  RH  079%=      5-min Rain = 0
KWE2 060402Z 01004KT 04/00 A3033 RMK A01 T00380004  RH  078%=      5-min Rain = 0
KWE2 060403Z 01004KT 04/00 A3033 RMK A01 T00380002  RH  077%=      5-min Rain = 0
KWE2 060404Z 01004KT 04/M00 A3033 RMK A01 T00351001  RH  077%=      5-min Rain = 0
KWE2 060405Z 01004KT 03/00 A3033 RMK A01 T003400-0  RH  079%=      5-min Rain = 0
KWE2 060406Z 01004KT 03/00 A3033 RMK A01 T00320000  RH  079%=      5-min Rain = 0
KWE2 060407Z 01004KT 03/00 A3033 RMK A01 T003200-0  RH  080%=      5-min Rain = 0
KWE2 060408Z 01004KT 03/M00 A3033 RMK A01 T00301002  RH  079%=      5-min Rain = 0
KWE2 060409Z 01004KT 03/M00 A3033 RMK A01 T00291002  RH  080%=      5-min Rain = 0
KWE2 060410Z 01004KT 03/M00 A3033 RMK A01 T00281002  RH  081%=      5-min Rain = 0
KWE2 060411Z 01004KT 03/M00 A3033 RMK A01 T00271003  RH  081%=      5-min Rain = 0
KWE2 060412Z 02004KT 03/M00 A3033 RMK A01 T00271002  RH  081%=      5-min Rain = 0
KWE2 060413Z 02004KT 03/M00 A3033 RMK A01 T00271002  RH  082%=      5-min Rain = 0
KWE2 060414Z 02004KT 03/M00 A3033 RMK A01 T00271002  RH  081%=      5-min Rain = 0
KWE2 060415Z 02004KT 03/M00 A3033 RMK A01 T00271002  RH  081%=      5-min Rain = 0
KWE2 060416Z 02004KT 03/M00 A3033 RMK A01 T00271002  RH  082%=      5-min Rain = 0
KWE2 060417Z 02004KT 03/M00 A3033 RMK A01 T00271002  RH  081%=      5-min Rain = 0
KWE2 060418Z 02004KT 03/M00 A3033 RMK A01 T00271002  RH  081%=      5-min Rain = 0
KWE2 060419Z 02004KT 03/M00 A3033 RMK A01 T00271002  RH  081%=      5-min Rain = 0
KWE2 060420Z 03004KT 03/M00 A3033 RMK A01 T00271001  RH  082%=      5-min Rain = 0
KWE2 060421Z 03004KT 03/00 A3033 RMK A01 T002800-0  RH  082%=      5-min Rain = 0
KWE2 060422Z 03004KT 03/00 A3033 RMK A01 T00290003  RH  083%=      5-min Rain = 0
KWE2 060423Z 03004KT 03/00 A3033 RMK A01 T00310004  RH  083%=      5-min Rain = 0
KWE2 060424Z 03005KT 03/01 A3033 RMK A01 T00330007  RH  083%=      5-min Rain = 0
KWE2 060425Z 03005KT 04/01 A3033 RMK A01 T00360010  RH  083%=      5-min Rain = 0
KWE2 060426Z 03005KT 04/01 A3034 RMK A01 T00380008  RH  081%=      5-min Rain = 0
KWE2 060427Z 03005KT 04/01 A3034 RMK A01 T00390007  RH  080%=      5-min Rain = 0
KWE2 060428Z 03005KT 04/01 A3034 RMK A01 T00400007  RH  079%=      5-min Rain = 0
KWE2 060429Z 02004KT 04/01 A3034 RMK A01 T00400007  RH  079%=      5-min Rain = 0
KWE2 060430Z 02004KT 04/01 A3034 RMK A01 T00400007  RH  079%=      5-min Rain = 0
KWE2 060431Z 02004KT 04/00 A3034 RMK A01 T00380003  RH  078%=      5-min Rain = 0
KWE2 060432Z 02004KT 04/00 A3034 RMK A01 T00370002  RH  078%=      5-min Rain = 0
KWE2 060433Z 02004KT 04/00 A3034 RMK A01 T00350002  RH  079%=      5-min Rain = 0
KWE2 060434Z 02004KT 03/00 A3034 RMK A01 T00340002  RH  080%=      5-min Rain = 0
KWE2 060435Z 02004KT 03/00 A3034 RMK A01 T00340003  RH  080%=      5-min Rain = 0
KWE2 060436Z 02004KT 03/00 A3034 RMK A01 T00340004  RH  081%=      5-min Rain = 0
KWE2 060437Z 02004KT 03/00 A3034 RMK A01 T00340003  RH  081%=      5-min Rain = 0
KWE2 060438Z 02004KT 03/00 A3034 RMK A01 T00330001  RH  079%=      5-min Rain = 0
KWE2 060439Z 02004KT 03/M00 A3034 RMK A01 T00321001  RH  079%=      5-min Rain = 0
KWE2 060440Z 03004KT 03/M00 A3034 RMK A01 T00311001  RH  080%=      5-min Rain = 0
KWE2 060441Z 03003KT 03/M00 A3034 RMK A01 T00301001  RH  080%=      5-min Rain = 0
KWE2 060442Z 03003KT 03/M00 A3034 RMK A01 T00291001  RH  081%=      5-min Rain = 0
KWE2 060443Z 02004KT 03/M00 A3034 RMK A01 T00281002  RH  081%=      5-min Rain = 0
KWE2 060444Z 02003KT 03/M00 A3034 RMK A01 T00281002  RH  081%=      5-min Rain = 0
KWE2 060445Z 02003KT 03/M00 A3034 RMK A01 T00271002  RH  081%=      5-min Rain = 0
KWE2 060446Z 02004KT 03/M00 A3034 RMK A01 T00261003  RH  081%=      5-min Rain = 0
KWE2 060447Z 02004KT 03/M00 A3034 RMK A01 T00251003  RH  081%=      5-min Rain = 0
KWE2 060448Z 02003KT 02/M00 A3034 RMK A01 T00241003  RH  082%=      5-min Rain = 0
KWE2 060449Z 02004KT 03/00 A3034 RMK A01 T002500-0  RH  084%=      5-min Rain = 0
KWE2 060450Z 02004KT 03/00 A3034 RMK A01 T00260002  RH  084%=      5-min Rain = 0
KWE2 060451Z 02004KT 03/00 A3034 RMK A01 T00280002  RH  083%=      5-min Rain = 0
KWE2 060452Z 02004KT 03/00 A3034 RMK A01 T00290001  RH  082%=      5-min Rain = 0
KWE2 060453Z 02004KT 03/00 A3034 RMK A01 T00300001  RH  081%=      5-min Rain = 0
KWE2 060454Z 02004KT 03/00 A3034 RMK A01 T00300000  RH  081%=      5-min Rain = 0
KWE2 060455Z 02005KT 03/00 A3034 RMK A01 T003000-0  RH  081%=      5-min Rain = 0
KWE2 060456Z 02005KT 03/M00 A3034 RMK A01 T00291002  RH  080%=      5-min Rain = 0
KWE2 060457Z 02005KT 03/M00 A3034 RMK A01 T00271004  RH  080%=      5-min Rain = 0
KWE2 060458Z 02005KT 03/M00 A3034 RMK A01 T00261004  RH  081%=      5-min Rain = 0
KWE2 060459Z 02005KT 03/M01 A3034 RMK A01 T00251005  RH  081%=      5-min Rain = 0
KWE2 060500Z 02005KT 02/M01 A3034 RMK A01 T00231006  RH  081%=      5-min Rain = 0
KWE2 060501Z 02005KT 02/M01 A3034 RMK A01 T00211008  RH  081%=      5-min Rain = 0
KWE2 060502Z 02005KT 02/M01 A3034 RMK A01 T00201008  RH  082%=      5-min Rain = 0
KWE2 060503Z 02005KT 02/M01 A3034 RMK A01 T00191008  RH  082%=      5-min Rain = 0
KWE2 060504Z 02004KT 02/M01 A3034 RMK A01 T00181008  RH  083%=      5-min Rain = 0
KWE2 060505Z 02005KT 02/M01 A3034 RMK A01 T00181007  RH  084%=      5-min Rain = 0
KWE2 060506Z 02004KT 02/M01 A3034 RMK A01 T00171005  RH  085%=      5-min Rain = 0
KWE2 060507Z 02005KT 02/M00 A3034 RMK A01 T00171004  RH  085%=      5-min Rain = 0
KWE2 060508Z 02004KT 02/M00 A3034 RMK A01 T00181002  RH  086%=      5-min Rain = 0
KWE2 060509Z 02004KT 02/M00 A3034 RMK A01 T00191002  RH  086%=      5-min Rain = 0
KWE2 060510Z 02004KT 02/M00 A3034 RMK A01 T00191002  RH  086%=      5-min Rain = 0
KWE2 060511Z 02004KT 02/M00 A3034 RMK A01 T00201001  RH  086%=      5-min Rain = 0
KWE2 060512Z 01004KT 02/00 A3034 RMK A01 T00210001  RH  087%=      5-min Rain = 0
KWE2 060513Z 01004KT 02/00 A3034 RMK A01 T00220001  RH  086%=      5-min Rain = 0
KWE2 060514Z 01005KT 02/00 A3034 RMK A01 T00230002  RH  086%=      5-min Rain = 0
KWE2 060515Z 01005KT 02/00 A3034 RMK A01 T00240001  RH  085%=      5-min Rain = 0
KWE2 060516Z 01006KT 02/00 A3034 RMK A01 T002400-0  RH  084%=      5-min Rain = 0
KWE2 060517Z 01006KT 02/M00 A3033 RMK A01 T00231002  RH  083%=      5-min Rain = 0
KWE2 060518Z 01007KT 02/M00 A3033 RMK A01 T00221004  RH  083%=      5-min Rain = 0
KWE2 060519Z 01007KT 02/M00 A3033 RMK A01 T00201004  RH  084%=      5-min Rain = 0
KWE2 060520Z 01007KT 02/M00 A3033 RMK A01 T00201004  RH  084%=      5-min Rain = 0
KWE2 060521Z 01007KT 02/M00 A3033 RMK A01 T00201003  RH  085%=      5-min Rain = 0
KWE2 060522Z 01007KT 02/M00 A3033 RMK A01 T00201003  RH  085%=      5-min Rain = 0
KWE2 060523Z 01007KT 02/M01 A3033 RMK A01 T00181006  RH  084%=      5-min Rain = 0
KWE2 060524Z 01006KT 02/M01 A3033 RMK A01 T00171007  RH  084%=      5-min Rain = 0
KWE2 060525Z 01006KT 02/M01 A3033 RMK A01 T00161008  RH  085%=      5-min Rain = 0
KWE2 060526Z 01006KT 02/M01 A3033 RMK A01 T00151007  RH  085%=      5-min Rain = 0
KWE2 060527Z 00006KT 01/M01 A3033 RMK A01 T00131009  RH  085%=      5-min Rain = 0
KWE2 060528Z 00006KT 01/M01 A3033 RMK A01 T00121009  RH  086%=      5-min Rain = 0
KWE2 060529Z 00006KT 01/M01 A3034 RMK A01 T00121006  RH  088%=      5-min Rain = 0
KWE2 060530Z 00005KT 01/M00 A3034 RMK A01 T00121003  RH  089%=      5-min Rain = 0
KWE2 060531Z 00005KT 01/M00 A3034 RMK A01 T00131003  RH  089%=      5-min Rain = 0
KWE2 060532Z 36004KT 01/M01 A3033 RMK A01 T00131006  RH  087%=      5-min Rain = 0
KWE2 060533Z 36003KT 01/M01 A3033 RMK A01 T00121006  RH  088%=      5-min Rain = 0
KWE2 060534Z 35003KT 01/M01 A3034 RMK A01 T00121007  RH  087%=      5-min Rain = 0
KWE2 060535Z 35003KT 02/M01 A3034 RMK A01 T00151006  RH  086%=      5-min Rain = 0
KWE2 060536Z 36003KT 02/M01 A3034 RMK A01 T00161006  RH  085%=      5-min Rain = 0
KWE2 060537Z 35003KT 02/M01 A3034 RMK A01 T00181007  RH  084%=      5-min Rain = 0
KWE2 060538Z 35003KT 02/M01 A3034 RMK A01 T00191008  RH  083%=      5-min Rain = 0
KWE2 060539Z 35003KT 02/M01 A3034 RMK A01 T00191008  RH  082%=      5-min Rain = 0
KWE2 060540Z 35003KT 02/M01 A3034 RMK A01 T00201008  RH  082%=      5-min Rain = 0
KWE2 060541Z 35004KT 02/M01 A3034 RMK A01 T00201007  RH  082%=      5-min Rain = 0
KWE2 060542Z 35004KT 02/M01 A3033 RMK A01 T00211006  RH  082%=      5-min Rain = 0
KWE2 060543Z 35004KT 02/M01 A3033 RMK A01 T00221005  RH  082%=      5-min Rain = 0
KWE2 060544Z 35004KT 02/M01 A3033 RMK A01 T00221006  RH  082%=      5-min Rain = 0
KWE2 060545Z 35005KT 02/M01 A3033 RMK A01 T00231006  RH  082%=      5-min Rain = 0
KWE2 060546Z 35004KT 02/M01 A3033 RMK A01 T00221005  RH  082%=      5-min Rain = 0
KWE2 060547Z 35005KT 02/M01 A3033 RMK A01 T00221006  RH  082%=      5-min Rain = 0
KWE2 060548Z 36005KT 02/M01 A3033 RMK A01 T00201009  RH  081%=      5-min Rain = 0
KWE2 060549Z 00005KT 02/M01 A3033 RMK A01 T00171012  RH  081%=      5-min Rain = 0
KWE2 060550Z 00005KT 02/M01 A3033 RMK A01 T00151013  RH  082%=      5-min Rain = 0
KWE2 060551Z 00005KT 01/M01 A3033 RMK A01 T00131014  RH  082%=      5-min Rain = 0
KWE2 060552Z 00005KT 01/M02 A3033 RMK A01 T00111016  RH  082%=      5-min Rain = 0
KWE2 060553Z 00005KT 01/M02 A3033 RMK A01 T00091016  RH  083%=      5-min Rain = 0
KWE2 060554Z 00005KT 01/M02 A3033 RMK A01 T00081016  RH  084%=      5-min Rain = 0
KWE2 060555Z 00006KT 01/M02 A3033 RMK A01 T00071016  RH  084%=      5-min Rain = 0
KWE2 060556Z 00006KT 01/M02 A3033 RMK A01 T00061018  RH  084%=      5-min Rain = 0
KWE2 060557Z 00006KT 01/M02 A3033 RMK A01 T00051018  RH  084%=      5-min Rain = 0
KWE2 060558Z 00007KT 00/M02 A3033 RMK A01 T00041018  RH  086%=      5-min Rain = 0
KWE2 060559Z 00007KT 00/M02 A3033 RMK A01 T00031017  RH  086%=      5-min Rain = 0

Page generated in 0.1239 seconds.